Observation data for Fort Lancaster on 07/11/2018      Previous  Date       Current Mesonet Observations  Soil Data  Daily Summary Page  Observations in Plain Language
KLA1 110501Z 13006KT 27/16 A3009 RMK A01 T02720160  RH  050%=      5-min Rain = 0
KLA1 110502Z 13006KT 27/16 A3009 RMK A01 T02720160  RH  050%=      5-min Rain = 0
KLA1 110503Z 13006KT 27/16 A3009 RMK A01 T02720160  RH  050%=      5-min Rain = 0
KLA1 110504Z 12005KT 27/16 A3009 RMK A01 T02720160  RH  050%=      5-min Rain = 0
KLA1 110505Z 13006KT 27/16 A3009 RMK A01 T02720161  RH  051%=      5-min Rain = 0
KLA1 110506Z 13006KT 27/16 A3009 RMK A01 T02720161  RH  051%=      5-min Rain = 0
KLA1 110507Z 13007KT 27/16 A3009 RMK A01 T02720160  RH  051%=      5-min Rain = 0
KLA1 110508Z 12006KT 27/16 A3009 RMK A01 T02720160  RH  050%=      5-min Rain = 0
KLA1 110509Z 12005KT 27/16 A3009 RMK A01 T02720160  RH  050%=      5-min Rain = 0
KLA1 110510Z 13007KT 27/16 A3009 RMK A01 T02730161  RH  050%=      5-min Rain = 0
KLA1 110511Z 12006KT 27/16 A3009 RMK A01 T02730161  RH  050%=      5-min Rain = 0
KLA1 110512Z 13005KT 27/16 A3009 RMK A01 T02730161  RH  050%=      5-min Rain = 0
KLA1 110513Z 13005KT 27/16 A3009 RMK A01 T02730161  RH  050%=      5-min Rain = 0
KLA1 110514Z 13005KT 27/16 A3009 RMK A01 T02720161  RH  051%=      5-min Rain = 0
KLA1 110515Z 13006KT 27/16 A3009 RMK A01 T02720161  RH  051%=      5-min Rain = 0
KLA1 110516Z 13005KT 27/16 A3009 RMK A01 T02720161  RH  051%=      5-min Rain = 0
KLA1 110517Z 13006KT 27/16 A3009 RMK A01 T02720161  RH  051%=      5-min Rain = 0
KLA1 110518Z 14006KT 27/16 A3009 RMK A01 T02720161  RH  051%=      5-min Rain = 0
KLA1 110519Z 13005KT 27/16 A3009 RMK A01 T02720162  RH  051%=      5-min Rain = 0
KLA1 110520Z 13005KT 27/16 A3009 RMK A01 T02710162  RH  051%=      5-min Rain = 0
KLA1 110521Z 14005KT 27/16 A3009 RMK A01 T02710162  RH  051%=      5-min Rain = 0
KLA1 110522Z 14006KT 27/16 A3009 RMK A01 T02710162  RH  051%=      5-min Rain = 0
KLA1 110523Z 14007KT 27/16 A3009 RMK A01 T02710162  RH  051%=      5-min Rain = 0
KLA1 110524Z 14006KT 27/16 A3009 RMK A01 T02710161  RH  051%=      5-min Rain = 0
KLA1 110525Z 15005KT 27/16 A3009 RMK A01 T02710161  RH  051%=      5-min Rain = 0
KLA1 110526Z 15005KT 27/16 A3009 RMK A01 T02710162  RH  051%=      5-min Rain = 0
KLA1 110527Z 14007KT 27/16 A3009 RMK A01 T02710161  RH  051%=      5-min Rain = 0
KLA1 110528Z 14007KT 27/16 A3009 RMK A01 T02710161  RH  051%=      5-min Rain = 0
KLA1 110529Z 15008KT 27/16 A3009 RMK A01 T02720161  RH  051%=      5-min Rain = 0
KLA1 110530Z 14006KT 27/16 A3009 RMK A01 T02730161  RH  050%=      5-min Rain = 0
KLA1 110531Z 14006KT 27/16 A3009 RMK A01 T02730161  RH  050%=      5-min Rain = 0
KLA1 110532Z 14006KT 27/16 A3009 RMK A01 T02730161  RH  050%=      5-min Rain = 0
KLA1 110533Z 14006KT 27/16 A3009 RMK A01 T02730161  RH  051%=      5-min Rain = 0
KLA1 110534Z 14006KT 27/16 A3009 RMK A01 T02730161  RH  051%=      5-min Rain = 0
KLA1 110535Z 14006KT 27/16 A3009 RMK A01 T02720161  RH  051%=      5-min Rain = 0
KLA1 110536Z 14006KT 27/16 A3009 RMK A01 T02720162  RH  051%=      5-min Rain = 0
KLA1 110537Z 14006KT 27/16 A3009 RMK A01 T02720161  RH  051%=      5-min Rain = 0
KLA1 110538Z 14006KT 27/16 A3009 RMK A01 T02720162  RH  051%=      5-min Rain = 0
KLA1 110539Z 14006KT 27/16 A3009 RMK A01 T02720162  RH  051%=      5-min Rain = 0
KLA1 110540Z 14008KT 27/16 A3009 RMK A01 T02720162  RH  051%=      5-min Rain = 0
KLA1 110541Z 14007KT 27/16 A3009 RMK A01 T02720162  RH  051%=      5-min Rain = 0
KLA1 110542Z 13006KT 27/16 A3009 RMK A01 T02720162  RH  051%=      5-min Rain = 0
KLA1 110543Z 14006KT 27/16 A3009 RMK A01 T02720162  RH  051%=      5-min Rain = 0
KLA1 110544Z 14006KT 27/16 A3009 RMK A01 T02720162  RH  051%=      5-min Rain = 0
KLA1 110545Z 14006KT 27/16 A3009 RMK A01 T02720162  RH  051%=      5-min Rain = 0
KLA1 110546Z 14006KT 27/16 A3009 RMK A01 T02720162  RH  051%=      5-min Rain = 0
KLA1 110547Z 15008KT 27/16 A3009 RMK A01 T02720162  RH  051%=      5-min Rain = 0
KLA1 110548Z 14007KT 27/16 A3009 RMK A01 T02720162  RH  051%=      5-min Rain = 0
KLA1 110549Z 14006KT 27/16 A3009 RMK A01 T02720162  RH  051%=      5-min Rain = 0
KLA1 110550Z 14006KT 27/16 A3009 RMK A01 T02720163  RH  051%=      5-min Rain = 0
KLA1 110551Z 14008KT 27/16 A3009 RMK A01 T02720163  RH  051%=      5-min Rain = 0
KLA1 110552Z 14010KT 27/16 A3009 RMK A01 T02720163  RH  051%=      5-min Rain = 0
KLA1 110553Z 14008KT 27/16 A3009 RMK A01 T02720163  RH  051%=      5-min Rain = 0
KLA1 110554Z 13007KT 27/16 A3009 RMK A01 T02730163  RH  051%=      5-min Rain = 0
KLA1 110555Z 14008KT 27/16 A3009 RMK A01 T02730163  RH  051%=      5-min Rain = 0
KLA1 110556Z 14007KT 27/16 A3009 RMK A01 T02730163  RH  051%=      5-min Rain = 0
KLA1 110557Z 14008KT 27/16 A3009 RMK A01 T02730163  RH  051%=      5-min Rain = 0
KLA1 110558Z 14008KT 27/16 A3009 RMK A01 T02730163  RH  051%=      5-min Rain = 0
KLA1 110559Z 14008KT 27/16 A3009 RMK A01 T02730163  RH  051%=      5-min Rain = 0
KLA1 110600Z 14009KT 27/16 A3009 RMK A01 T02730163  RH  051%=      5-min Rain = 0
KLA1 110601Z 14007KT 27/16 A3009 RMK A01 T02730164  RH  051%=      5-min Rain = 0
KLA1 110602Z 14005KT 27/16 A3009 RMK A01 T02730164  RH  051%=      5-min Rain = 0
KLA1 110603Z 14006KT 27/16 A3009 RMK A01 T02720164  RH  052%=      5-min Rain = 0
KLA1 110604Z 14006KT 27/16 A3009 RMK A01 T02720164  RH  052%=      5-min Rain = 0
KLA1 110605Z 14006KT 27/16 A3009 RMK A01 T02710164  RH  052%=      5-min Rain = 0
KLA1 110606Z 13007KT 27/16 A3009 RMK A01 T02710164  RH  052%=      5-min Rain = 0
KLA1 110607Z 13007KT 27/16 A3009 RMK A01 T02710164  RH  052%=      5-min Rain = 0
KLA1 110608Z 14009KT 27/16 A3009 RMK A01 T02710164  RH  052%=      5-min Rain = 0
KLA1 110609Z 14008KT 27/16 A3009 RMK A01 T02710164  RH  052%=      5-min Rain = 0
KLA1 110610Z 13008KT 27/16 A3009 RMK A01 T02710164  RH  052%=      5-min Rain = 0
KLA1 110611Z 14009KT 27/16 A3009 RMK A01 T02710164  RH  052%=      5-min Rain = 0
KLA1 110612Z 13009KT 27/17 A3009 RMK A01 T02710165  RH  052%=      5-min Rain = 0
KLA1 110613Z 13007KT 27/17 A3009 RMK A01 T02710165  RH  052%=      5-min Rain = 0
KLA1 110614Z 14008KT 27/17 A3009 RMK A01 T02710165  RH  052%=      5-min Rain = 0
KLA1 110615Z 14007KT 27/17 A3009 RMK A01 T02710165  RH  052%=      5-min Rain = 0
KLA1 110616Z 13007KT 27/17 A3009 RMK A01 T02710165  RH  052%=      5-min Rain = 0
KLA1 110617Z 14008KT 27/17 A3009 RMK A01 T02710165  RH  052%=      5-min Rain = 0
KLA1 110618Z 14006KT 27/17 A3009 RMK A01 T02710166  RH  053%=      5-min Rain = 0
KLA1 110619Z 13007KT 27/17 A3009 RMK A01 T02700166  RH  053%=      5-min Rain = 0
KLA1 110620Z 13009KT 27/17 A3009 RMK A01 T02700166  RH  053%=      5-min Rain = 0
KLA1 110621Z 14007KT 27/17 A3009 RMK A01 T02700165  RH  053%=      5-min Rain = 0
KLA1 110622Z 14008KT 27/17 A3009 RMK A01 T02700166  RH  053%=      5-min Rain = 0
KLA1 110623Z 13006KT 27/17 A3009 RMK A01 T02710166  RH  053%=      5-min Rain = 0
KLA1 110624Z 13008KT 27/17 A3009 RMK A01 T02700167  RH  053%=      5-min Rain = 0
KLA1 110625Z 14007KT 27/17 A3009 RMK A01 T02700166  RH  053%=      5-min Rain = 0
KLA1 110626Z 14006KT 27/17 A3009 RMK A01 T02690166  RH  053%=      5-min Rain = 0
KLA1 110627Z 13006KT 27/17 A3009 RMK A01 T02680167  RH  054%=      5-min Rain = 0
KLA1 110628Z 14006KT 27/17 A3009 RMK A01 T02680167  RH  054%=      5-min Rain = 0
KLA1 110629Z 14008KT 27/17 A3009 RMK A01 T02680167  RH  054%=      5-min Rain = 0
KLA1 110630Z 13009KT 27/17 A3009 RMK A01 T02670167  RH  054%=      5-min Rain = 0
KLA1 110631Z 13007KT 27/17 A3008 RMK A01 T02680167  RH  054%=      5-min Rain = 0
KLA1 110632Z 14008KT 27/17 A3008 RMK A01 T02680167  RH  054%=      5-min Rain = 0
KLA1 110633Z 14007KT 27/17 A3008 RMK A01 T02680168  RH  054%=      5-min Rain = 0
KLA1 110634Z 14007KT 27/17 A3008 RMK A01 T02680168  RH  054%=      5-min Rain = 0
KLA1 110635Z 14006KT 27/17 A3008 RMK A01 T02680168  RH  054%=      5-min Rain = 0
KLA1 110636Z 14006KT 27/17 A3008 RMK A01 T02670168  RH  055%=      5-min Rain = 0
KLA1 110637Z 14006KT 27/17 A3008 RMK A01 T02670168  RH  055%=      5-min Rain = 0
KLA1 110638Z 14007KT 27/17 A3008 RMK A01 T02660168  RH  055%=      5-min Rain = 0
KLA1 110639Z 14009KT 27/17 A3008 RMK A01 T02660169  RH  055%=      5-min Rain = 0
KLA1 110640Z 15009KT 27/17 A3008 RMK A01 T02660168  RH  055%=      5-min Rain = 0
KLA1 110641Z 14009KT 27/17 A3009 RMK A01 T02670168  RH  055%=      5-min Rain = 0
KLA1 110642Z 14007KT 27/17 A3009 RMK A01 T02680169  RH  055%=      5-min Rain = 0
KLA1 110643Z 13007KT 27/17 A3009 RMK A01 T02680169  RH  055%=      5-min Rain = 0
KLA1 110644Z 14006KT 27/17 A3009 RMK A01 T02670169  RH  055%=      5-min Rain = 0
KLA1 110645Z 13007KT 27/17 A3009 RMK A01 T02670169  RH  055%=      5-min Rain = 0
KLA1 110646Z 13008KT 27/17 A3009 RMK A01 T02660169  RH  055%=      5-min Rain = 0
KLA1 110647Z 13007KT 27/17 A3009 RMK A01 T02660170  RH  055%=      5-min Rain = 0
KLA1 110648Z 13006KT 27/17 A3009 RMK A01 T02660170  RH  055%=      5-min Rain = 0
KLA1 110649Z 14007KT 27/17 A3009 RMK A01 T02660170  RH  055%=      5-min Rain = 0
KLA1 110650Z 15008KT 27/17 A3009 RMK A01 T02660170  RH  055%=      5-min Rain = 0
KLA1 110651Z 13006KT 27/17 A3009 RMK A01 T02660170  RH  055%=      5-min Rain = 0
KLA1 110652Z 14007KT 27/17 A3009 RMK A01 T02660170  RH  056%=      5-min Rain = 0
KLA1 110653Z 13008KT 27/17 A3009 RMK A01 T02660170  RH  056%=      5-min Rain = 0
KLA1 110654Z 14008KT 27/17 A3009 RMK A01 T02660170  RH  056%=      5-min Rain = 0
KLA1 110655Z 14006KT 27/17 A3009 RMK A01 T02660171  RH  056%=      5-min Rain = 0
KLA1 110656Z 14007KT 27/17 A3009 RMK A01 T02650171  RH  056%=      5-min Rain = 0
KLA1 110657Z 14007KT 27/17 A3009 RMK A01 T02650171  RH  056%=      5-min Rain = 0
KLA1 110658Z 14006KT 26/17 A3009 RMK A01 T02640170  RH  056%=      5-min Rain = 0
KLA1 110659Z 14006KT 26/17 A3009 RMK A01 T02640170  RH  056%=      5-min Rain = 0
KLA1 110700Z 14006KT 26/17 A3009 RMK A01 T02640170  RH  056%=      5-min Rain = 0
KLA1 110701Z 14006KT 26/17 A3009 RMK A01 T02640171  RH  056%=      5-min Rain = 0
KLA1 110702Z 13006KT 26/17 A3009 RMK A01 T02640170  RH  056%=      5-min Rain = 0
KLA1 110703Z 14006KT 26/17 A3009 RMK A01 T02640170  RH  056%=      5-min Rain = 0
KLA1 110704Z 14006KT 26/17 A3009 RMK A01 T02640170  RH  056%=      5-min Rain = 0
KLA1 110705Z 14008KT 26/17 A3009 RMK A01 T02640171  RH  057%=      5-min Rain = 0
KLA1 110706Z 14008KT 26/17 A3009 RMK A01 T02630170  RH  057%=      5-min Rain = 0
KLA1 110707Z 13007KT 26/17 A3009 RMK A01 T02630170  RH  057%=      5-min Rain = 0
KLA1 110708Z 14006KT 26/17 A3009 RMK A01 T02630170  RH  057%=      5-min Rain = 0
KLA1 110709Z 14007KT 26/17 A3009 RMK A01 T02630171  RH  057%=      5-min Rain = 0
KLA1 110710Z 13005KT 26/17 A3009 RMK A01 T02630171  RH  057%=      5-min Rain = 0
KLA1 110711Z 13007KT 26/17 A3009 RMK A01 T02630171  RH  057%=      5-min Rain = 0
KLA1 110712Z 14006KT 26/17 A3009 RMK A01 T02630171  RH  057%=      5-min Rain = 0
KLA1 110713Z 14008KT 26/17 A3009 RMK A01 T02630171  RH  057%=      5-min Rain = 0
KLA1 110714Z 14006KT 26/17 A3009 RMK A01 T02630171  RH  057%=      5-min Rain = 0
KLA1 110715Z 14006KT 26/17 A3009 RMK A01 T02630171  RH  057%=      5-min Rain = 0
KLA1 110716Z 14006KT 26/17 A3009 RMK A01 T02620171  RH  057%=      5-min Rain = 0
KLA1 110717Z 14006KT 26/17 A3009 RMK A01 T02620171  RH  057%=      5-min Rain = 0
KLA1 110718Z 14007KT 26/17 A3009 RMK A01 T02610171  RH  058%=      5-min Rain = 0
KLA1 110719Z 13007KT 26/17 A3009 RMK A01 T02610171  RH  058%=      5-min Rain = 0
KLA1 110720Z 13005KT 26/17 A3009 RMK A01 T02600172  RH  058%=      5-min Rain = 0
KLA1 110721Z 14005KT 26/17 A3009 RMK A01 T02600171  RH  058%=      5-min Rain = 0
KLA1 110722Z 14006KT 26/17 A3009 RMK A01 T02590172  RH  058%=      5-min Rain = 0
KLA1 110723Z 14005KT 26/17 A3009 RMK A01 T02590172  RH  058%=      5-min Rain = 0
KLA1 110724Z 13005KT 26/17 A3009 RMK A01 T02590172  RH  059%=      5-min Rain = 0
KLA1 110725Z 14006KT 26/17 A3009 RMK A01 T02590172  RH  059%=      5-min Rain = 0
KLA1 110726Z 13007KT 26/17 A3009 RMK A01 T02590172  RH  059%=      5-min Rain = 0
KLA1 110727Z 14006KT 26/17 A3009 RMK A01 T02590172  RH  059%=      5-min Rain = 0
KLA1 110728Z 14006KT 26/17 A3009 RMK A01 T02590172  RH  059%=      5-min Rain = 0
KLA1 110729Z 14006KT 26/17 A3009 RMK A01 T02580172  RH  059%=      5-min Rain = 0
KLA1 110730Z 13006KT 26/17 A3009 RMK A01 T02580172  RH  059%=      5-min Rain = 0
KLA1 110731Z 14007KT 26/17 A3009 RMK A01 T02580172  RH  059%=      5-min Rain = 0
KLA1 110732Z 14007KT 26/17 A3009 RMK A01 T02580172  RH  059%=      5-min Rain = 0
KLA1 110733Z 14007KT 26/17 A3009 RMK A01 T02580172  RH  059%=      5-min Rain = 0
KLA1 110734Z 14007KT 26/17 A3009 RMK A01 T02580173  RH  059%=      5-min Rain = 0
KLA1 110735Z 14007KT 26/17 A3009 RMK A01 T02580172  RH  059%=      5-min Rain = 0
KLA1 110736Z 14007KT 26/17 A3009 RMK A01 T02590173  RH  059%=      5-min Rain = 0
KLA1 110737Z 13007KT 26/17 A3009 RMK A01 T02590173  RH  059%=      5-min Rain = 0
KLA1 110738Z 14005KT 26/17 A3009 RMK A01 T02590173  RH  059%=      5-min Rain = 0
KLA1 110739Z 14006KT 26/17 A3009 RMK A01 T02590173  RH  059%=      5-min Rain = 0
KLA1 110740Z 14006KT 26/17 A3009 RMK A01 T02590174  RH  059%=      5-min Rain = 0
KLA1 110741Z 14006KT 26/17 A3009 RMK A01 T02580174  RH  060%=      5-min Rain = 0
KLA1 110742Z 13006KT 26/17 A3009 RMK A01 T02580174  RH  060%=      5-min Rain = 0
KLA1 110743Z 14006KT 26/17 A3009 RMK A01 T02570174  RH  060%=      5-min Rain = 0
KLA1 110744Z 13006KT 26/17 A3009 RMK A01 T02570174  RH  060%=      5-min Rain = 0
KLA1 110745Z 14006KT 26/17 A3009 RMK A01 T02570174  RH  060%=      5-min Rain = 0
KLA1 110746Z 13006KT 26/17 A3009 RMK A01 T02570174  RH  060%=      5-min Rain = 0
KLA1 110747Z 13007KT 26/18 A3009 RMK A01 T02560175  RH  061%=      5-min Rain = 0
KLA1 110748Z 14007KT 26/18 A3009 RMK A01 T02560175  RH  061%=      5-min Rain = 0
KLA1 110749Z 14007KT 26/18 A3009 RMK A01 T02560175  RH  061%=      5-min Rain = 0
KLA1 110750Z 13006KT 26/18 A3008 RMK A01 T02560175  RH  061%=      5-min Rain = 0
KLA1 110751Z 13007KT 26/18 A3008 RMK A01 T02560175  RH  061%=      5-min Rain = 0
KLA1 110752Z 13007KT 26/18 A3008 RMK A01 T02560175  RH  061%=      5-min Rain = 0
KLA1 110753Z 13006KT 26/18 A3008 RMK A01 T02550175  RH  061%=      5-min Rain = 0
KLA1 110754Z 13008KT 26/18 A3008 RMK A01 T02550175  RH  061%=      5-min Rain = 0
KLA1 110755Z 13007KT 26/18 A3008 RMK A01 T02550175  RH  061%=      5-min Rain = 0
KLA1 110756Z 13007KT 26/17 A3008 RMK A01 T02550174  RH  061%=      5-min Rain = 0
KLA1 110757Z 13006KT 26/18 A3008 RMK A01 T02550175  RH  061%=      5-min Rain = 0
KLA1 110758Z 12006KT 26/18 A3008 RMK A01 T02550175  RH  061%=      5-min Rain = 0
KLA1 110759Z 13007KT 26/18 A3008 RMK A01 T02550175  RH  061%=      5-min Rain = 0
KLA1 110800Z 13008KT 26/18 A3008 RMK A01 T02550175  RH  061%=      5-min Rain = 0
KLA1 110801Z 13008KT 26/18 A3008 RMK A01 T02560176  RH  061%=      5-min Rain = 0
KLA1 110802Z 13008KT 26/18 A3008 RMK A01 T02550175  RH  061%=      5-min Rain = 0
KLA1 110803Z 13009KT 26/18 A3008 RMK A01 T02550176  RH  061%=      5-min Rain = 0
KLA1 110804Z 13009KT 26/18 A3008 RMK A01 T02560176  RH  062%=      5-min Rain = 0
KLA1 110805Z 13008KT 26/18 A3008 RMK A01 T02560177  RH  061%=      5-min Rain = 0
KLA1 110806Z 13009KT 26/18 A3008 RMK A01 T02560176  RH  061%=      5-min Rain = 0
KLA1 110807Z 13008KT 26/18 A3008 RMK A01 T02560177  RH  061%=      5-min Rain = 0
KLA1 110808Z 12007KT 26/18 A3008 RMK A01 T02560177  RH  062%=      5-min Rain = 0
KLA1 110809Z 13007KT 26/18 A3008 RMK A01 T02560177  RH  062%=      5-min Rain = 0
KLA1 110810Z 13007KT 26/18 A3008 RMK A01 T02560177  RH  062%=      5-min Rain = 0
KLA1 110811Z 13008KT 26/18 A3008 RMK A01 T02550177  RH  062%=      5-min Rain = 0
KLA1 110812Z 13008KT 26/18 A3008 RMK A01 T02550178  RH  062%=      5-min Rain = 0
KLA1 110813Z 13008KT 25/18 A3008 RMK A01 T02540177  RH  062%=      5-min Rain = 0
KLA1 110814Z 14010KT 26/18 A3008 RMK A01 T02550178  RH  062%=      5-min Rain = 0
KLA1 110815Z 13009KT 26/18 A3008 RMK A01 T02550178  RH  062%=      5-min Rain = 0
KLA1 110816Z 13008KT 26/18 A3008 RMK A01 T02550178  RH  062%=      5-min Rain = 0
KLA1 110817Z 13008KT 26/18 A3008 RMK A01 T02550178  RH  062%=      5-min Rain = 0
KLA1 110818Z 13008KT 26/18 A3008 RMK A01 T02550178  RH  063%=      5-min Rain = 0
KLA1 110819Z 13006KT 26/18 A3008 RMK A01 T02550178  RH  063%=      5-min Rain = 0
KLA1 110820Z 13007KT 25/18 A3008 RMK A01 T02540179  RH  063%=      5-min Rain = 0
KLA1 110821Z 13008KT 25/18 A3008 RMK A01 T02540179  RH  063%=      5-min Rain = 0
KLA1 110822Z 13008KT 25/18 A3008 RMK A01 T02540179  RH  063%=      5-min Rain = 0
KLA1 110823Z 13008KT 25/18 A3008 RMK A01 T02540179  RH  063%=      5-min Rain = 0
KLA1 110824Z 13007KT 25/18 A3008 RMK A01 T02540179  RH  063%=      5-min Rain = 0
KLA1 110825Z 13007KT 25/18 A3008 RMK A01 T02540180  RH  064%=      5-min Rain = 0
KLA1 110826Z 14007KT 25/18 A3008 RMK A01 T02540180  RH  064%=      5-min Rain = 0
KLA1 110827Z 13008KT 25/18 A3008 RMK A01 T02530180  RH  064%=      5-min Rain = 0
KLA1 110828Z 13009KT 25/18 A3008 RMK A01 T02530180  RH  064%=      5-min Rain = 0
KLA1 110829Z 12008KT 25/18 A3008 RMK A01 T02540181  RH  064%=      5-min Rain = 0
KLA1 110830Z 13008KT 25/18 A3008 RMK A01 T02540181  RH  064%=      5-min Rain = 0
KLA1 110831Z 13010KT 25/18 A3008 RMK A01 T02540181  RH  064%=      5-min Rain = 0
KLA1 110832Z 13008KT 25/18 A3008 RMK A01 T02540181  RH  064%=      5-min Rain = 0
KLA1 110833Z 12008KT 25/18 A3008 RMK A01 T02540181  RH  064%=      5-min Rain = 0
KLA1 110834Z 14008KT 25/18 A3008 RMK A01 T02540182  RH  064%=      5-min Rain = 0
KLA1 110835Z 13007KT 25/18 A3008 RMK A01 T02540182  RH  064%=      5-min Rain = 0
KLA1 110836Z 13009KT 25/18 A3008 RMK A01 T02540182  RH  064%=      5-min Rain = 0
KLA1 110837Z 13011KT 25/18 A3008 RMK A01 T02540183  RH  065%=      5-min Rain = 0
KLA1 110838Z 13008KT 25/18 A3008 RMK A01 T02540183  RH  065%=      5-min Rain = 0
KLA1 110839Z 14010KT 26/18 A3008 RMK A01 T02550184  RH  065%=      5-min Rain = 0
KLA1 110840Z 13008KT 25/18 A3008 RMK A01 T02540183  RH  065%=      5-min Rain = 0
KLA1 110841Z 14008KT 25/18 A3008 RMK A01 T02540184  RH  065%=      5-min Rain = 0
KLA1 110842Z 14008KT 25/18 A3008 RMK A01 T02540184  RH  065%=      5-min Rain = 0
KLA1 110843Z 14008KT 25/19 A3008 RMK A01 T02540185  RH  066%=      5-min Rain = 0
KLA1 110844Z 13009KT 25/19 A3008 RMK A01 T02530185  RH  066%=      5-min Rain = 0
KLA1 110845Z 13009KT 25/19 A3008 RMK A01 T02530185  RH  066%=      5-min Rain = 0
KLA1 110846Z 13007KT 25/19 A3008 RMK A01 T02530185  RH  066%=      5-min Rain = 0
KLA1 110847Z 14006KT 25/19 A3008 RMK A01 T02530185  RH  066%=      5-min Rain = 0
KLA1 110848Z 14007KT 25/19 A3008 RMK A01 T02530186  RH  066%=      5-min Rain = 0
KLA1 110849Z 14008KT 25/19 A3008 RMK A01 T02520185  RH  066%=      5-min Rain = 0
KLA1 110850Z 14009KT 25/19 A3008 RMK A01 T02520185  RH  067%=      5-min Rain = 0
KLA1 110851Z 14009KT 25/19 A3008 RMK A01 T02520186  RH  067%=      5-min Rain = 0
KLA1 110852Z 13008KT 25/19 A3008 RMK A01 T02520186  RH  067%=      5-min Rain = 0
KLA1 110853Z 13008KT 25/19 A3008 RMK A01 T02520186  RH  067%=      5-min Rain = 0
KLA1 110854Z 14009KT 25/19 A3008 RMK A01 T02520186  RH  067%=      5-min Rain = 0
KLA1 110855Z 14008KT 25/19 A3008 RMK A01 T02520187  RH  067%=      5-min Rain = 0
KLA1 110856Z 14006KT 25/19 A3008 RMK A01 T02520187  RH  067%=      5-min Rain = 0
KLA1 110857Z 13007KT 25/19 A3008 RMK A01 T02520187  RH  067%=      5-min Rain = 0
KLA1 110858Z 14010KT 25/19 A3008 RMK A01 T02510187  RH  068%=      5-min Rain = 0
KLA1 110859Z 14008KT 25/19 A3008 RMK A01 T02510188  RH  068%=      5-min Rain = 0
KLA1 110900Z 13009KT 25/19 A3008 RMK A01 T02520188  RH  068%=      5-min Rain = 0
KLA1 110901Z 13009KT 25/19 A3008 RMK A01 T02510188  RH  068%=      5-min Rain = 0
KLA1 110902Z 13009KT 25/19 A3008 RMK A01 T02520188  RH  068%=      5-min Rain = 0
KLA1 110903Z 13008KT 25/19 A3008 RMK A01 T02520188  RH  068%=      5-min Rain = 0
KLA1 110904Z 13010KT 25/19 A3008 RMK A01 T02520188  RH  068%=      5-min Rain = 0
KLA1 110905Z 14012KT 25/19 A3008 RMK A01 T02520189  RH  068%=      5-min Rain = 0
KLA1 110906Z 14010KT 25/19 A3008 RMK A01 T02520189  RH  068%=      5-min Rain = 0
KLA1 110907Z 14009KT 25/19 A3008 RMK A01 T02520189  RH  068%=      5-min Rain = 0
KLA1 110908Z 14007KT 25/19 A3008 RMK A01 T02520190  RH  068%=      5-min Rain = 0
KLA1 110909Z 14009KT 25/19 A3008 RMK A01 T02520190  RH  068%=      5-min Rain = 0
KLA1 110910Z 14010KT 25/19 A3008 RMK A01 T02520190  RH  069%=      5-min Rain = 0
KLA1 110911Z 14009KT 25/19 A3008 RMK A01 T02510190  RH  069%=      5-min Rain = 0
KLA1 110912Z 14009KT 25/19 A3008 RMK A01 T02510190  RH  069%=      5-min Rain = 0
KLA1 110913Z 14008KT 25/19 A3008 RMK A01 T02510190  RH  069%=      5-min Rain = 0
KLA1 110914Z 14009KT 25/19 A3008 RMK A01 T02510191  RH  069%=      5-min Rain = 0
KLA1 110915Z 14009KT 25/19 A3008 RMK A01 T02510191  RH  069%=      5-min Rain = 0
KLA1 110916Z 14010KT 25/19 A3008 RMK A01 T02500191  RH  070%=      5-min Rain = 0
KLA1 110917Z 15009KT 25/19 A3008 RMK A01 T02510191  RH  070%=      5-min Rain = 0
KLA1 110918Z 14009KT 25/19 A3008 RMK A01 T02510191  RH  070%=      5-min Rain = 0
KLA1 110919Z 14009KT 25/19 A3008 RMK A01 T02500192  RH  070%=      5-min Rain = 0
KLA1 110920Z 14008KT 25/19 A3008 RMK A01 T02500191  RH  070%=      5-min Rain = 0
KLA1 110921Z 14008KT 25/19 A3008 RMK A01 T02500192  RH  070%=      5-min Rain = 0
KLA1 110922Z 14007KT 25/19 A3008 RMK A01 T02500192  RH  070%=      5-min Rain = 0
KLA1 110923Z 14009KT 25/19 A3008 RMK A01 T02490192  RH  070%=      5-min Rain = 0
KLA1 110924Z 15009KT 25/19 A3008 RMK A01 T02490192  RH  071%=      5-min Rain = 0
KLA1 110925Z 15009KT 25/19 A3008 RMK A01 T02490192  RH  071%=      5-min Rain = 0
KLA1 110926Z 15007KT 25/19 A3008 RMK A01 T02490193  RH  071%=      5-min Rain = 0
KLA1 110927Z 14008KT 25/19 A3008 RMK A01 T02480192  RH  071%=      5-min Rain = 0
KLA1 110928Z 14009KT 25/19 A3008 RMK A01 T02480193  RH  071%=      5-min Rain = 0
KLA1 110929Z 14009KT 25/19 A3008 RMK A01 T02480193  RH  071%=      5-min Rain = 0
KLA1 110930Z 14008KT 25/19 A3008 RMK A01 T02480193  RH  071%=      5-min Rain = 0
KLA1 110931Z 14009KT 25/19 A3008 RMK A01 T02480193  RH  071%=      5-min Rain = 0
KLA1 110932Z 14009KT 25/19 A3008 RMK A01 T02480194  RH  072%=      5-min Rain = 0
KLA1 110933Z 15008KT 25/19 A3008 RMK A01 T02480193  RH  072%=      5-min Rain = 0
KLA1 110934Z 14009KT 25/19 A3008 RMK A01 T02470193  RH  072%=      5-min Rain = 0
KLA1 110935Z 14007KT 25/19 A3008 RMK A01 T02470193  RH  072%=      5-min Rain = 0
KLA1 110936Z 14007KT 25/19 A3008 RMK A01 T02470193  RH  072%=      5-min Rain = 0
KLA1 110937Z 14008KT 25/19 A3008 RMK A01 T02470194  RH  072%=      5-min Rain = 0
KLA1 110938Z 14008KT 25/19 A3008 RMK A01 T02470194  RH  072%=      5-min Rain = 0
KLA1 110939Z 14008KT 25/19 A3008 RMK A01 T02470194  RH  072%=      5-min Rain = 0
KLA1 110940Z 15007KT 25/19 A3008 RMK A01 T02470194  RH  072%=      5-min Rain = 0
KLA1 110941Z 14008KT 25/19 A3008 RMK A01 T02470194  RH  073%=      5-min Rain = 0
KLA1 110942Z 14009KT 25/20 A3008 RMK A01 T02460195  RH  073%=      5-min Rain = 0
KLA1 110943Z 14007KT 25/20 A3008 RMK A01 T02460195  RH  073%=      5-min Rain = 0
KLA1 110944Z 14009KT 25/20 A3008 RMK A01 T02460195  RH  073%=      5-min Rain = 0
KLA1 110945Z 14009KT 25/20 A3008 RMK A01 T02470195  RH  073%=      5-min Rain = 0
KLA1 110946Z 14008KT 25/20 A3008 RMK A01 T02460195  RH  073%=      5-min Rain = 0
KLA1 110947Z 14008KT 25/20 A3008 RMK A01 T02460195  RH  073%=      5-min Rain = 0
KLA1 110948Z 14009KT 25/20 A3008 RMK A01 T02450195  RH  074%=      5-min Rain = 0
KLA1 110949Z 14009KT 25/20 A3008 RMK A01 T02460196  RH  074%=      5-min Rain = 0
KLA1 110950Z 14009KT 25/20 A3008 RMK A01 T02450195  RH  074%=      5-min Rain = 0
KLA1 110951Z 14009KT 25/20 A3008 RMK A01 T02450195  RH  074%=      5-min Rain = 0
KLA1 110952Z 14008KT 25/20 A3008 RMK A01 T02450195  RH  074%=      5-min Rain = 0
KLA1 110953Z 14008KT 25/20 A3008 RMK A01 T02450196  RH  074%=      5-min Rain = 0
KLA1 110954Z 14009KT 25/20 A3008 RMK A01 T02450196  RH  074%=      5-min Rain = 0
KLA1 110955Z 14008KT 25/20 A3008 RMK A01 T02450196  RH  074%=      5-min Rain = 0
KLA1 110956Z 14008KT 25/20 A3008 RMK A01 T02450196  RH  074%=      5-min Rain = 0
KLA1 110957Z 14009KT 25/20 A3008 RMK A01 T02450197  RH  074%=      5-min Rain = 0
KLA1 110958Z 14008KT 25/20 A3008 RMK A01 T02450196  RH  074%=      5-min Rain = 0
KLA1 110959Z 14010KT 25/20 A3008 RMK A01 T02450196  RH  074%=      5-min Rain = 0
KLA1 111000Z 14010KT 25/20 A3008 RMK A01 T02450197  RH  074%=      5-min Rain = 0
KLA1 111001Z 14012KT 25/20 A3008 RMK A01 T02450197  RH  074%=      5-min Rain = 0
KLA1 111002Z 15011KT 25/20 A3008 RMK A01 T02460197  RH  074%=      5-min Rain = 0
KLA1 111003Z 14009KT 25/20 A3008 RMK A01 T02460197  RH  074%=      5-min Rain = 0
KLA1 111004Z 14009KT 25/20 A3008 RMK A01 T02460197  RH  074%=      5-min Rain = 0
KLA1 111005Z 13008G13KT 25/20 A3008 RMK A01 T02460197  RH  074%=      5-min Rain = 0
KLA1 111006Z 14010KT 25/20 A3008 RMK A01 T02450197  RH  074%=      5-min Rain = 0
KLA1 111007Z 14010KT 25/20 A3008 RMK A01 T02450197  RH  074%=      5-min Rain = 0
KLA1 111008Z 14009KT 25/20 A3007 RMK A01 T02460197  RH  074%=      5-min Rain = 0
KLA1 111009Z 14009KT 25/20 A3007 RMK A01 T02450197  RH  074%=      5-min Rain = 0
KLA1 111010Z 14008KT 25/20 A3007 RMK A01 T02450197  RH  075%=      5-min Rain = 0
KLA1 111011Z 14009KT 25/20 A3007 RMK A01 T02450197  RH  075%=      5-min Rain = 0
KLA1 111012Z 14009KT 25/20 A3007 RMK A01 T02450197  RH  075%=      5-min Rain = 0
KLA1 111013Z 14009KT 25/20 A3007 RMK A01 T02450198  RH  075%=      5-min Rain = 0
KLA1 111014Z 14010KT 24/20 A3007 RMK A01 T02440197  RH  075%=      5-min Rain = 0
KLA1 111015Z 14009KT 24/20 A3007 RMK A01 T02440198  RH  075%=      5-min Rain = 0
KLA1 111016Z 14010KT 24/20 A3007 RMK A01 T02440198  RH  075%=      5-min Rain = 0
KLA1 111017Z 14009KT 24/20 A3008 RMK A01 T02440198  RH  075%=      5-min Rain = 0
KLA1 111018Z 13011KT 24/20 A3008 RMK A01 T02440198  RH  075%=      5-min Rain = 0
KLA1 111019Z 14009KT 24/20 A3008 RMK A01 T02440198  RH  075%=      5-min Rain = 0
KLA1 111020Z 14010KT 24/20 A3008 RMK A01 T02440197  RH  075%=      5-min Rain = 0
KLA1 111021Z 14010KT 24/20 A3008 RMK A01 T02440197  RH  075%=      5-min Rain = 0
KLA1 111022Z 14009KT 24/20 A3008 RMK A01 T02440197  RH  075%=      5-min Rain = 0
KLA1 111023Z 14008KT 24/20 A3008 RMK A01 T02440197  RH  075%=      5-min Rain = 0
KLA1 111024Z 14008KT 24/20 A3008 RMK A01 T02440198  RH  075%=      5-min Rain = 0
KLA1 111025Z 14009KT 24/20 A3008 RMK A01 T02440197  RH  075%=      5-min Rain = 0
KLA1 111026Z 14009KT 24/20 A3008 RMK A01 T02440198  RH  075%=      5-min Rain = 0
KLA1 111027Z 14009KT 24/20 A3008 RMK A01 T02440197  RH  075%=      5-min Rain = 0
KLA1 111028Z 14007KT 24/20 A3008 RMK A01 T02440197  RH  075%=      5-min Rain = 0
KLA1 111029Z 14007KT 24/20 A3008 RMK A01 T02440197  RH  075%=      5-min Rain = 0
KLA1 111030Z 14009KT 24/20 A3008 RMK A01 T02440198  RH  075%=      5-min Rain = 0
KLA1 111031Z 15009KT 24/20 A3008 RMK A01 T02430197  RH  076%=      5-min Rain = 0
KLA1 111032Z 14009KT 24/20 A3008 RMK A01 T02430197  RH  075%=      5-min Rain = 0
KLA1 111033Z 14009KT 24/20 A3008 RMK A01 T02430197  RH  075%=      5-min Rain = 0
KLA1 111034Z 14009KT 24/20 A3008 RMK A01 T02430197  RH  075%=      5-min Rain = 0
KLA1 111035Z 14009KT 24/20 A3009 RMK A01 T02430197  RH  075%=      5-min Rain = 0
KLA1 111036Z 14008KT 24/20 A3008 RMK A01 T02430197  RH  075%=      5-min Rain = 0
KLA1 111037Z 14008KT 24/20 A3008 RMK A01 T02430197  RH  075%=      5-min Rain = 0
KLA1 111038Z 14007KT 24/20 A3008 RMK A01 T02430197  RH  076%=      5-min Rain = 0
KLA1 111039Z 14007KT 24/20 A3008 RMK A01 T02430198  RH  076%=      5-min Rain = 0
KLA1 111040Z 14007KT 24/20 A3008 RMK A01 T02420198  RH  076%=      5-min Rain = 0
KLA1 111041Z 14008KT 24/20 A3008 RMK A01 T02420198  RH  076%=      5-min Rain = 0
KLA1 111042Z 14011KT 24/20 A3008 RMK A01 T02420197  RH  076%=      5-min Rain = 0
KLA1 111043Z 14009KT 24/20 A3008 RMK A01 T02420197  RH  076%=      5-min Rain = 0
KLA1 111044Z 14008KT 24/20 A3008 RMK A01 T02420197  RH  076%=      5-min Rain = 0
KLA1 111045Z 14007KT 24/20 A3008 RMK A01 T02430197  RH  076%=      5-min Rain = 0
KLA1 111046Z 15007KT 24/20 A3008 RMK A01 T02420197  RH  076%=      5-min Rain = 0
KLA1 111047Z 15009KT 24/20 A3008 RMK A01 T02420198  RH  076%=      5-min Rain = 0
KLA1 111048Z 14008KT 24/20 A3008 RMK A01 T02420197  RH  076%=      5-min Rain = 0
KLA1 111049Z 14006KT 24/20 A3008 RMK A01 T02420197  RH  076%=      5-min Rain = 0
KLA1 111050Z 14007KT 24/20 A3008 RMK A01 T02420197  RH  076%=      5-min Rain = 0
KLA1 111051Z 14007KT 24/20 A3008 RMK A01 T02420197  RH  076%=      5-min Rain = 0
KLA1 111052Z 14006KT 24/20 A3008 RMK A01 T02410197  RH  076%=      5-min Rain = 0
KLA1 111053Z 14005KT 24/20 A3009 RMK A01 T02410197  RH  076%=      5-min Rain = 0
KLA1 111054Z 13006KT 24/20 A3009 RMK A01 T02400197  RH  077%=      5-min Rain = 0
KLA1 111055Z 13006KT 24/20 A3009 RMK A01 T02400197  RH  077%=      5-min Rain = 0
KLA1 111056Z 14006KT 24/20 A3009 RMK A01 T02400197  RH  077%=      5-min Rain = 0
KLA1 111057Z 13007KT 24/20 A3009 RMK A01 T02400197  RH  077%=      5-min Rain = 0
KLA1 111058Z 14007KT 24/20 A3009 RMK A01 T02400197  RH  077%=      5-min Rain = 0
KLA1 111059Z 13007KT 24/20 A3009 RMK A01 T02400197  RH  077%=      5-min Rain = 0
KLA1 111100Z 13007KT 24/20 A3009 RMK A01 T02400197  RH  077%=      5-min Rain = 0
KLA1 111101Z 13006KT 24/20 A3009 RMK A01 T02400197  RH  077%=      5-min Rain = 0
KLA1 111102Z 14007KT 24/20 A3009 RMK A01 T02400197  RH  077%=      5-min Rain = 0
KLA1 111103Z 14006KT 24/20 A3009 RMK A01 T02400197  RH  077%=      5-min Rain = 0
KLA1 111104Z 14006KT 24/20 A3009 RMK A01 T02400197  RH  077%=      5-min Rain = 0
KLA1 111105Z 13006KT 24/20 A3009 RMK A01 T02400197  RH  077%=      5-min Rain = 0
KLA1 111106Z 13005KT 24/20 A3009 RMK A01 T02390197  RH  077%=      5-min Rain = 0
KLA1 111107Z 14005KT 24/20 A3009 RMK A01 T02390197  RH  077%=      5-min Rain = 0
KLA1 111108Z 14007KT 24/20 A3009 RMK A01 T02390197  RH  077%=      5-min Rain = 0
KLA1 111109Z 13006KT 24/20 A3009 RMK A01 T02390197  RH  077%=      5-min Rain = 0
KLA1 111110Z 14005KT 24/20 A3009 RMK A01 T02390197  RH  077%=      5-min Rain = 0
KLA1 111111Z 14005KT 24/20 A3009 RMK A01 T02390197  RH  077%=      5-min Rain = 0
KLA1 111112Z 13005KT 24/20 A3009 RMK A01 T02390197  RH  078%=      5-min Rain = 0
KLA1 111113Z 13005KT 24/20 A3009 RMK A01 T02390197  RH  078%=      5-min Rain = 0
KLA1 111114Z 13005KT 24/20 A3009 RMK A01 T02390197  RH  078%=      5-min Rain = 0
KLA1 111115Z 13006KT 24/20 A3009 RMK A01 T02390197  RH  078%=      5-min Rain = 0
KLA1 111116Z 14006KT 24/20 A3009 RMK A01 T02380197  RH  078%=      5-min Rain = 0
KLA1 111117Z 14008KT 24/20 A3009 RMK A01 T02390197  RH  078%=      5-min Rain = 0
KLA1 111118Z 14006KT 24/20 A3009 RMK A01 T02380197  RH  078%=      5-min Rain = 0
KLA1 111119Z 14006KT 24/20 A3009 RMK A01 T02380197  RH  078%=      5-min Rain = 0
KLA1 111120Z 14005KT 24/20 A3009 RMK A01 T02390197  RH  078%=      5-min Rain = 0
KLA1 111121Z 14005KT 24/20 A3009 RMK A01 T02380197  RH  078%=      5-min Rain = 0
KLA1 111122Z 14005KT 24/20 A3009 RMK A01 T02380197  RH  078%=      5-min Rain = 0
KLA1 111123Z 14005KT 24/20 A3009 RMK A01 T02380197  RH  078%=      5-min Rain = 0
KLA1 111124Z 13005KT 24/20 A3009 RMK A01 T02380197  RH  078%=      5-min Rain = 0
KLA1 111125Z 13005KT 24/20 A3009 RMK A01 T02380197  RH  078%=      5-min Rain = 0
KLA1 111126Z 13006KT 24/20 A3009 RMK A01 T02380197  RH  078%=      5-min Rain = 0
KLA1 111127Z 13005KT 24/20 A3009 RMK A01 T02380197  RH  078%=      5-min Rain = 0
KLA1 111128Z 13005KT 24/20 A3009 RMK A01 T02380197  RH  078%=      5-min Rain = 0
KLA1 111129Z 13006KT 24/20 A3009 RMK A01 T02380197  RH  078%=      5-min Rain = 0
KLA1 111130Z 13005KT 24/20 A3009 RMK A01 T02380197  RH  078%=      5-min Rain = 0
KLA1 111131Z 13005KT 24/20 A3009 RMK A01 T02370197  RH  078%=      5-min Rain = 0
KLA1 111132Z 14007KT 24/20 A3009 RMK A01 T02370197  RH  078%=      5-min Rain = 0
KLA1 111133Z 13005KT 24/20 A3009 RMK A01 T02370198  RH  078%=      5-min Rain = 0
KLA1 111134Z 14005KT 24/20 A3009 RMK A01 T02370197  RH  078%=      5-min Rain = 0
KLA1 111135Z 14005KT 24/20 A301 RMK A01 T02370197  RH  078%=      5-min Rain = 0
KLA1 111136Z 14006KT 24/20 A301 RMK A01 T02370198  RH  079%=      5-min Rain = 0
KLA1 111137Z 14005KT 24/20 A301 RMK A01 T02370198  RH  079%=      5-min Rain = 0
KLA1 111138Z 13005KT 24/20 A301 RMK A01 T02360197  RH  079%=      5-min Rain = 0
KLA1 111139Z 13005KT 24/20 A301 RMK A01 T02360198  RH  079%=      5-min Rain = 0
KLA1 111140Z 14004KT 24/20 A301 RMK A01 T02360198  RH  079%=      5-min Rain = 0
KLA1 111141Z 14004KT 24/20 A301 RMK A01 T02360198  RH  079%=      5-min Rain = 0
KLA1 111142Z 14005KT 24/20 A301 RMK A01 T02350198  RH  079%=      5-min Rain = 0
KLA1 111143Z 14005KT 24/20 A301 RMK A01 T02350197  RH  079%=      5-min Rain = 0
KLA1 111144Z 13005KT 24/20 A301 RMK A01 T02350197  RH  080%=      5-min Rain = 0
KLA1 111145Z 14006KT 24/20 A301 RMK A01 T02350198  RH  080%=      5-min Rain = 0
KLA1 111146Z 14005KT 23/20 A301 RMK A01 T02340198  RH  080%=      5-min Rain = 0
KLA1 111147Z 14005KT 23/20 A301 RMK A01 T02340197  RH  080%=      5-min Rain = 0
KLA1 111148Z 14008KT 23/20 A301 RMK A01 T02340197  RH  080%=      5-min Rain = 0
KLA1 111149Z 14006KT 24/20 A301 RMK A01 T02350198  RH  080%=      5-min Rain = 0
KLA1 111150Z 14005KT 24/20 A301 RMK A01 T02350197  RH  079%=      5-min Rain = 0
KLA1 111151Z 14005KT 24/20 A301 RMK A01 T02360198  RH  079%=      5-min Rain = 0
KLA1 111152Z 14005KT 24/20 A301 RMK A01 T02360198  RH  079%=      5-min Rain = 0
KLA1 111153Z 14005KT 24/20 A301 RMK A01 T02360198  RH  079%=      5-min Rain = 0
KLA1 111154Z 14005KT 24/20 A301 RMK A01 T02360198  RH  079%=      5-min Rain = 0
KLA1 111155Z 14005KT 24/20 A301 RMK A01 T02350198  RH  079%=      5-min Rain = 0
KLA1 111156Z 14004KT 24/20 A301 RMK A01 T02350197  RH  080%=      5-min Rain = 0
KLA1 111157Z 14005KT 24/20 A301 RMK A01 T02350198  RH  080%=      5-min Rain = 0
KLA1 111158Z 15006KT 23/20 A301 RMK A01 T02340198  RH  080%=      5-min Rain = 0
KLA1 111159Z 14006KT 23/20 A301 RMK A01 T02340198  RH  080%=      5-min Rain = 0
KLA1 111200Z 14005KT 23/20 A301 RMK A01 T02340197  RH  080%=      5-min Rain = 0
KLA1 111201Z 13005KT 23/20 A301 RMK A01 T02340197  RH  080%=      5-min Rain = 0
KLA1 111202Z 13005KT 23/20 A301 RMK A01 T02340197  RH  080%=      5-min Rain = 0
KLA1 111203Z 14005KT 23/20 A301 RMK A01 T02340197  RH  080%=      5-min Rain = 0
KLA1 111204Z 14005KT 23/20 A301 RMK A01 T02340197  RH  080%=      5-min Rain = 0
KLA1 111205Z 14005KT 24/20 A301 RMK A01 T02350198  RH  080%=      5-min Rain = 0
KLA1 111206Z 14006KT 23/20 A301 RMK A01 T02340198  RH  080%=      5-min Rain = 0
KLA1 111207Z 13006KT 23/20 A301 RMK A01 T02340198  RH  080%=      5-min Rain = 0
KLA1 111208Z 14007KT 24/20 A301 RMK A01 T02350198  RH  080%=      5-min Rain = 0
KLA1 111209Z 13007KT 24/20 A301 RMK A01 T02350198  RH  080%=      5-min Rain = 0
KLA1 111210Z 13005KT 24/20 A301 RMK A01 T02350198  RH  080%=      5-min Rain = 0
KLA1 111211Z 13006KT 24/20 A301 RMK A01 T02350198  RH  080%=      5-min Rain = 0
KLA1 111212Z 13007KT 24/20 A301 RMK A01 T02350198  RH  080%=      5-min Rain = 0
KLA1 111213Z 13006KT 24/20 A301 RMK A01 T02350198  RH  080%=      5-min Rain = 0
KLA1 111214Z 12006KT 24/20 A301 RMK A01 T02350197  RH  079%=      5-min Rain = 0
KLA1 111215Z 13006KT 24/20 A301 RMK A01 T02350198  RH  079%=      5-min Rain = 0
KLA1 111216Z 13007KT 24/20 A301 RMK A01 T02350198  RH  079%=      5-min Rain = 0
KLA1 111217Z 13007KT 24/20 A301 RMK A01 T02350198  RH  080%=      5-min Rain = 0
KLA1 111218Z 13006KT 24/20 A301 RMK A01 T02350198  RH  079%=      5-min Rain = 0
KLA1 111219Z 13005KT 24/20 A301 RMK A01 T02350198  RH  080%=      5-min Rain = 0
KLA1 111220Z 13007KT 24/20 A301 RMK A01 T02350198  RH  080%=      5-min Rain = 0
KLA1 111221Z 12006KT 24/20 A301 RMK A01 T02350198  RH  080%=      5-min Rain = 0
KLA1 111222Z 13006KT 24/20 A301 RMK A01 T02350198  RH  080%=      5-min Rain = 0
KLA1 111223Z 13006KT 24/20 A301 RMK A01 T02350198  RH  080%=      5-min Rain = 0
KLA1 111224Z 12007KT 24/20 A301 RMK A01 T02350198  RH  080%=      5-min Rain = 0
KLA1 111225Z 13007KT 24/20 A301 RMK A01 T02350198  RH  079%=      5-min Rain = 0
KLA1 111226Z 12007KT 24/20 A301 RMK A01 T02360198  RH  079%=      5-min Rain = 0
KLA1 111227Z 13006KT 24/20 A301 RMK A01 T02360198  RH  079%=      5-min Rain = 0
KLA1 111228Z 13006KT 24/20 A301 RMK A01 T02360198  RH  079%=      5-min Rain = 0
KLA1 111229Z 13006KT 24/20 A301 RMK A01 T02360198  RH  079%=      5-min Rain = 0
KLA1 111230Z 13006KT 24/20 A301 RMK A01 T02360198  RH  079%=      5-min Rain = 0
KLA1 111231Z 13006KT 24/20 A301 RMK A01 T02360198  RH  079%=      5-min Rain = 0
KLA1 111232Z 13007KT 24/20 A301 RMK A01 T02360198  RH  079%=      5-min Rain = 0
KLA1 111233Z 14005KT 24/20 A301 RMK A01 T02360198  RH  079%=      5-min Rain = 0
KLA1 111234Z 13010KT 24/20 A301 RMK A01 T02360198  RH  079%=      5-min Rain = 0
KLA1 111235Z 14011KT 24/20 A301 RMK A01 T02370198  RH  079%=      5-min Rain = 0
KLA1 111236Z 14009KT 24/20 A301 RMK A01 T02380198  RH  078%=      5-min Rain = 0
KLA1 111237Z 14007KT 24/20 A301 RMK A01 T02380198  RH  078%=      5-min Rain = 0
KLA1 111238Z 14007KT 24/20 A301 RMK A01 T02380198  RH  078%=      5-min Rain = 0
KLA1 111239Z 14008KT 24/20 A301 RMK A01 T02380198  RH  078%=      5-min Rain = 0
KLA1 111240Z 14009KT 24/20 A301 RMK A01 T02390198  RH  078%=      5-min Rain = 0
KLA1 111241Z 14007KT 24/20 A301 RMK A01 T02390198  RH  078%=      5-min Rain = 0
KLA1 111242Z 14008KT 24/20 A301 RMK A01 T02390198  RH  078%=      5-min Rain = 0
KLA1 111243Z 14009KT 24/20 A301 RMK A01 T02400198  RH  077%=      5-min Rain = 0
KLA1 111244Z 14009KT 24/20 A301 RMK A01 T02400198  RH  077%=      5-min Rain = 0
KLA1 111245Z 14008KT 24/20 A301 RMK A01 T02400198  RH  077%=      5-min Rain = 0
KLA1 111246Z 14007KT 24/20 A301 RMK A01 T02400198  RH  077%=      5-min Rain = 0
KLA1 111247Z 14008KT 24/20 A301 RMK A01 T02400198  RH  077%=      5-min Rain = 0
KLA1 111248Z 13006KT 24/20 A3011 RMK A01 T02410198  RH  077%=      5-min Rain = 0
KLA1 111249Z 14006KT 24/20 A3011 RMK A01 T02410198  RH  077%=      5-min Rain = 0
KLA1 111250Z 14007KT 24/20 A3011 RMK A01 T02420198  RH  077%=      5-min Rain = 0
KLA1 111251Z 14007KT 24/20 A3011 RMK A01 T02420199  RH  076%=      5-min Rain = 0
KLA1 111252Z 14008KT 24/20 A3011 RMK A01 T02430198  RH  076%=      5-min Rain = 0
KLA1 111253Z 14009KT 24/20 A3011 RMK A01 T02430198  RH  076%=      5-min Rain = 0
KLA1 111254Z 14008KT 24/20 A3011 RMK A01 T02440198  RH  076%=      5-min Rain = 0
KLA1 111255Z 14009KT 24/20 A3011 RMK A01 T02440198  RH  076%=      5-min Rain = 0
KLA1 111256Z 13008KT 24/20 A3011 RMK A01 T02440198  RH  076%=      5-min Rain = 0
KLA1 111257Z 14011KT 24/20 A3011 RMK A01 T02440199  RH  076%=      5-min Rain = 0
KLA1 111258Z 13010KT 25/20 A3011 RMK A01 T02450198  RH  075%=      5-min Rain = 0
KLA1 111259Z 14009KT 25/20 A3011 RMK A01 T02450199  RH  075%=      5-min Rain = 0
KLA1 111300Z 13010KT 24/20 A3011 RMK A01 T02440198  RH  075%=      5-min Rain = 0
KLA1 111301Z 14009KT 25/20 A3011 RMK A01 T02450198  RH  075%=      5-min Rain = 0
KLA1 111302Z 13009KT 25/20 A3011 RMK A01 T02450199  RH  075%=      5-min Rain = 0
KLA1 111303Z 13011KT 25/20 A3011 RMK A01 T02450198  RH  075%=      5-min Rain = 0
KLA1 111304Z 13010KT 25/20 A3011 RMK A01 T02450198  RH  075%=      5-min Rain = 0
KLA1 111305Z 13010KT 25/20 A3011 RMK A01 T02450198  RH  075%=      5-min Rain = 0
KLA1 111306Z 14010KT 25/20 A3012 RMK A01 T02450198  RH  075%=      5-min Rain = 0
KLA1 111307Z 14009KT 25/20 A3012 RMK A01 T02460198  RH  075%=      5-min Rain = 0
KLA1 111308Z 14010KT 25/20 A3012 RMK A01 T02460198  RH  074%=      5-min Rain = 0
KLA1 111309Z 14010KT 25/20 A3012 RMK A01 T02470198  RH  074%=      5-min Rain = 0
KLA1 111310Z 14007KT 25/20 A3012 RMK A01 T02470199  RH  074%=      5-min Rain = 0
KLA1 111311Z 13009KT 25/20 A3012 RMK A01 T02480199  RH  074%=      5-min Rain = 0
KLA1 111312Z 14008KT 25/20 A3012 RMK A01 T02480198  RH  074%=      5-min Rain = 0
KLA1 111313Z 14009KT 25/20 A3012 RMK A01 T02490198  RH  073%=      5-min Rain = 0
KLA1 111314Z 13009KT 25/20 A3012 RMK A01 T02490198  RH  073%=      5-min Rain = 0
KLA1 111315Z 13010KT 25/20 A3012 RMK A01 T02490198  RH  073%=      5-min Rain = 0
KLA1 111316Z 13010KT 25/20 A3012 RMK A01 T02490198  RH  073%=      5-min Rain = 0
KLA1 111317Z 13009KT 25/20 A3012 RMK A01 T02490198  RH  073%=      5-min Rain = 0
KLA1 111318Z 14010KT 25/20 A3012 RMK A01 T02490198  RH  073%=      5-min Rain = 0
KLA1 111319Z 15009KT 25/20 A3012 RMK A01 T02490198  RH  073%=      5-min Rain = 0
KLA1 111320Z 13009KT 25/20 A3012 RMK A01 T02490198  RH  073%=      5-min Rain = 0
KLA1 111321Z 13008KT 25/20 A3012 RMK A01 T02500198  RH  073%=      5-min Rain = 0
KLA1 111322Z 13005KT 25/20 A3012 RMK A01 T02500198  RH  073%=      5-min Rain = 0
KLA1 111323Z 13006G13KT 25/20 A3012 RMK A01 T02510199  RH  073%=      5-min Rain = 0
KLA1 111324Z 12009KT 25/20 A3012 RMK A01 T02520198  RH  072%=      5-min Rain = 0
KLA1 111325Z 13008KT 25/20 A3012 RMK A01 T02530199  RH  072%=      5-min Rain = 0
KLA1 111326Z 12011KT 25/20 A3012 RMK A01 T02530199  RH  072%=      5-min Rain = 0
KLA1 111327Z 14009KT 25/20 A3012 RMK A01 T02530198  RH  072%=      5-min Rain = 0
KLA1 111328Z 14010KT 25/20 A3012 RMK A01 T02530198  RH  072%=      5-min Rain = 0
KLA1 111329Z 14012KT 25/20 A3012 RMK A01 T02530199  RH  072%=      5-min Rain = 0
KLA1 111330Z 14010KT 25/20 A3012 RMK A01 T02520198  RH  072%=      5-min Rain = 0
KLA1 111331Z 14010KT 25/20 A3012 RMK A01 T02520198  RH  072%=      5-min Rain = 0
KLA1 111332Z 14009KT 25/20 A3013 RMK A01 T02530198  RH  072%=      5-min Rain = 0
KLA1 111333Z 12009KT 25/20 A3013 RMK A01 T02530199  RH  072%=      5-min Rain = 0
KLA1 111334Z 13010KT 25/20 A3013 RMK A01 T02540199  RH  072%=      5-min Rain = 0
KLA1 111335Z 13010KT 25/20 A3013 RMK A01 T02540198  RH  071%=      5-min Rain = 0
KLA1 111336Z 13007KT 25/20 A3013 RMK A01 T02540199  RH  071%=      5-min Rain = 0
KLA1 111337Z 13009KT 26/20 A3013 RMK A01 T02550199  RH  071%=      5-min Rain = 0
KLA1 111338Z 14007KT 26/20 A3013 RMK A01 T02550199  RH  071%=      5-min Rain = 0
KLA1 111339Z 13006KT 26/20 A3013 RMK A01 T02560199  RH  071%=      5-min Rain = 0
KLA1 111340Z 13008KT 26/20 A3013 RMK A01 T02570199  RH  070%=      5-min Rain = 0
KLA1 111341Z 14007KT 26/20 A3013 RMK A01 T02570199  RH  070%=      5-min Rain = 0
KLA1 111342Z 15009KT 26/20 A3013 RMK A01 T02570199  RH  070%=      5-min Rain = 0
KLA1 111343Z 15010KT 26/20 A3013 RMK A01 T02580198  RH  070%=      5-min Rain = 0
KLA1 111344Z 15010KT 26/20 A3013 RMK A01 T02580198  RH  069%=      5-min Rain = 0
KLA1 111345Z 14009KT 26/20 A3013 RMK A01 T02580198  RH  069%=      5-min Rain = 0
KLA1 111346Z 14009KT 26/20 A3013 RMK A01 T02580198  RH  069%=      5-min Rain = 0
KLA1 111347Z 15008KT 26/20 A3013 RMK A01 T02590197  RH  069%=      5-min Rain = 0
KLA1 111348Z 15010KT 26/20 A3013 RMK A01 T02600198  RH  069%=      5-min Rain = 0
KLA1 111349Z 15011KT 26/20 A3013 RMK A01 T02600198  RH  068%=      5-min Rain = 0
KLA1 111350Z 14012KT 26/20 A3013 RMK A01 T02590197  RH  069%=      5-min Rain = 0
KLA1 111351Z 14011KT 26/20 A3013 RMK A01 T02580198  RH  069%=      5-min Rain = 0
KLA1 111352Z 15011KT 26/20 A3013 RMK A01 T02580197  RH  069%=      5-min Rain = 0
KLA1 111353Z 15009KT 26/20 A3013 RMK A01 T02580197  RH  069%=      5-min Rain = 0
KLA1 111354Z 15010KT 26/20 A3013 RMK A01 T02600197  RH  069%=      5-min Rain = 0
KLA1 111355Z 15009KT 26/20 A3013 RMK A01 T02600197  RH  068%=      5-min Rain = 0
KLA1 111356Z 14009KT 26/20 A3013 RMK A01 T02610198  RH  068%=      5-min Rain = 0
KLA1 111357Z 15009KT 26/20 A3013 RMK A01 T02620198  RH  067%=      5-min Rain = 0
KLA1 111358Z 14009KT 26/20 A3013 RMK A01 T02630197  RH  067%=      5-min Rain = 0
KLA1 111359Z 14007G13KT 26/20 A3013 RMK A01 T02630198  RH  067%=      5-min Rain = 0
KLA1 111400Z 13011KT 26/20 A3013 RMK A01 T02640198  RH  067%=      5-min Rain = 0
KLA1 111401Z 14010KT 27/20 A3013 RMK A01 T02650198  RH  067%=      5-min Rain = 0
KLA1 111402Z 14012KT 26/20 A3014 RMK A01 T02640197  RH  066%=      5-min Rain = 0
KLA1 111403Z 14007KT 26/20 A3014 RMK A01 T02630196  RH  067%=      5-min Rain = 0
KLA1 111404Z 13009KT 26/20 A3013 RMK A01 T02640198  RH  067%=      5-min Rain = 0
KLA1 111405Z 14009KT 27/20 A3014 RMK A01 T02650198  RH  066%=      5-min Rain = 0
KLA1 111406Z 16009KT 27/20 A3013 RMK A01 T02660197  RH  066%=      5-min Rain = 0
KLA1 111407Z 15008KT 27/20 A3014 RMK A01 T02670197  RH  066%=      5-min Rain = 0
KLA1 111408Z 14010KT 27/20 A3014 RMK A01 T02670198  RH  066%=      5-min Rain = 0
KLA1 111409Z 15011KT 27/20 A3014 RMK A01 T02680196  RH  065%=      5-min Rain = 0
KLA1 111410Z 16009KT 27/20 A3014 RMK A01 T02680196  RH  065%=      5-min Rain = 0
KLA1 111411Z 14009KT 27/20 A3014 RMK A01 T02680196  RH  065%=      5-min Rain = 0
KLA1 111412Z 14007KT 27/20 A3014 RMK A01 T02680197  RH  065%=      5-min Rain = 0
KLA1 111413Z 13010KT 27/20 A3014 RMK A01 T02690198  RH  065%=      5-min Rain = 0
KLA1 111414Z 13009KT 27/20 A3014 RMK A01 T02690197  RH  065%=      5-min Rain = 0
KLA1 111415Z 13009KT 27/20 A3013 RMK A01 T02680197  RH  065%=      5-min Rain = 0
KLA1 111416Z 14010KT 27/20 A3014 RMK A01 T02680196  RH  065%=      5-min Rain = 0
KLA1 111417Z 14013KT 27/20 A3014 RMK A01 T02690196  RH  064%=      5-min Rain = 0
KLA1 111418Z 15010KT 27/20 A3014 RMK A01 T02690195  RH  064%=      5-min Rain = 0
KLA1 111419Z 15010KT 27/20 A3014 RMK A01 T02690196  RH  064%=      5-min Rain = 0
KLA1 111420Z 13010KT 27/20 A3014 RMK A01 T02690196  RH  064%=      5-min Rain = 0
KLA1 111421Z 13011KT 27/20 A3014 RMK A01 T02700197  RH  064%=      5-min Rain = 0
KLA1 111422Z 14012KT 27/20 A3014 RMK A01 T02710196  RH  063%=      5-min Rain = 0
KLA1 111423Z 14010KT 27/20 A3014 RMK A01 T02700195  RH  064%=      5-min Rain = 0
KLA1 111424Z 14009KT 27/20 A3013 RMK A01 T02700196  RH  064%=      5-min Rain = 0
KLA1 111425Z 15011KT 27/20 A3013 RMK A01 T02720195  RH  063%=      5-min Rain = 0
KLA1 111426Z 15012G17KT 27/20 A3013 RMK A01 T02730195  RH  062%=      5-min Rain = 0
KLA1 111427Z 15012KT 27/19 A3013 RMK A01 T02730194  RH  062%=      5-min Rain = 0
KLA1 111428Z 15012KT 27/19 A3013 RMK A01 T02720193  RH  062%=      5-min Rain = 0
KLA1 111429Z 15013KT 27/19 A3013 RMK A01 T02720194  RH  062%=      5-min Rain = 0
KLA1 111430Z 16009KT 27/19 A3013 RMK A01 T02720194  RH  062%=      5-min Rain = 0
KLA1 111431Z 16010KT 27/20 A3013 RMK A01 T02730195  RH  062%=      5-min Rain = 0
KLA1 111432Z 16010KT 27/20 A3013 RMK A01 T02740195  RH  062%=      5-min Rain = 0
KLA1 111433Z 15009KT 27/19 A3013 RMK A01 T02740194  RH  062%=      5-min Rain = 0
KLA1 111434Z 15010KT 28/20 A3013 RMK A01 T02750195  RH  061%=      5-min Rain = 0
KLA1 111435Z 15010G15KT 28/19 A3013 RMK A01 T02760194  RH  061%=      5-min Rain = 0
KLA1 111436Z 15012KT 28/20 A3013 RMK A01 T02760195  RH  061%=      5-min Rain = 0
KLA1 111437Z 16012KT 28/19 A3013 RMK A01 T02760194  RH  061%=      5-min Rain = 0
KLA1 111438Z 15012KT 28/19 A3013 RMK A01 T02760194  RH  061%=      5-min Rain = 0
KLA1 111439Z 14011KT 28/20 A3013 RMK A01 T02760195  RH  061%=      5-min Rain = 0
KLA1 111440Z 14011KT 28/19 A3013 RMK A01 T02760194  RH  061%=      5-min Rain = 0
KLA1 111441Z 14011KT 28/19 A3013 RMK A01 T02760194  RH  061%=      5-min Rain = 0
KLA1 111442Z 15012KT 28/19 A3013 RMK A01 T02760193  RH  061%=      5-min Rain = 0
KLA1 111443Z 15011KT 28/19 A3013 RMK A01 T02760193  RH  060%=      5-min Rain = 0
KLA1 111444Z 15010KT 28/19 A3013 RMK A01 T02760193  RH  060%=      5-min Rain = 0
KLA1 111445Z 16010KT 28/19 A3013 RMK A01 T02770194  RH  061%=      5-min Rain = 0
KLA1 111446Z 15010KT 28/19 A3013 RMK A01 T02770194  RH  060%=      5-min Rain = 0
KLA1 111447Z 15012KT 28/19 A3013 RMK A01 T02780194  RH  060%=      5-min Rain = 0
KLA1 111448Z 15010KT 28/19 A3013 RMK A01 T02780194  RH  060%=      5-min Rain = 0
KLA1 111449Z 14010KT 28/19 A3013 RMK A01 T02790193  RH  060%=      5-min Rain = 0
KLA1 111450Z 14010KT 28/19 A3013 RMK A01 T02790194  RH  060%=      5-min Rain = 0
KLA1 111451Z 14010KT 28/19 A3013 RMK A01 T02800193  RH  059%=      5-min Rain = 0
KLA1 111452Z 14008KT 28/19 A3013 RMK A01 T02820194  RH  059%=      5-min Rain = 0
KLA1 111453Z 15010KT 28/19 A3013 RMK A01 T02820194  RH  059%=      5-min Rain = 0
KLA1 111454Z 16011KT 28/19 A3013 RMK A01 T02820192  RH  058%=      5-min Rain = 0
KLA1 111455Z 17011KT 28/19 A3013 RMK A01 T02830191  RH  058%=      5-min Rain = 0
KLA1 111456Z 15010KT 28/19 A3013 RMK A01 T02810193  RH  059%=      5-min Rain = 0
KLA1 111457Z 15011KT 28/19 A3013 RMK A01 T02830193  RH  058%=      5-min Rain = 0
KLA1 111458Z 13009KT 28/19 A3013 RMK A01 T02830193  RH  058%=      5-min Rain = 0
KLA1 111459Z 14010KT 28/19 A3013 RMK A01 T02830193  RH  058%=      5-min Rain = 0
KLA1 111500Z 16009KT 28/19 A3013 RMK A01 T02830192  RH  058%=      5-min Rain = 0
KLA1 111501Z 16009KT 28/19 A3013 RMK A01 T02840191  RH  057%=      5-min Rain = 0
KLA1 111502Z 15011KT 28/19 A3013 RMK A01 T02840193  RH  058%=      5-min Rain = 0
KLA1 111503Z 15009G14KT 29/19 A3013 RMK A01 T02850193  RH  058%=      5-min Rain = 0
KLA1 111504Z 15010KT 29/19 A3013 RMK A01 T02870192  RH  056%=      5-min Rain = 0
KLA1 111505Z 14010KT 29/19 A3013 RMK A01 T02870192  RH  056%=      5-min Rain = 0
KLA1 111506Z 14010KT 29/19 A3013 RMK A01 T02860191  RH  057%=      5-min Rain = 0
KLA1 111507Z 15013KT 29/19 A3013 RMK A01 T02860191  RH  056%=      5-min Rain = 0
KLA1 111508Z 16011KT 29/19 A3013 RMK A01 T02860190  RH  056%=      5-min Rain = 0
KLA1 111509Z 16008KT 29/19 A3013 RMK A01 T02860190  RH  056%=      5-min Rain = 0
KLA1 111510Z 15008KT 29/19 A3013 RMK A01 T02860191  RH  057%=      5-min Rain = 0
KLA1 111511Z 14013KT 29/19 A3013 RMK A01 T02870191  RH  056%=      5-min Rain = 0
KLA1 111512Z 14012KT 29/19 A3013 RMK A01 T02880190  RH  056%=      5-min Rain = 0
KLA1 111513Z 14011KT 29/19 A3013 RMK A01 T02870191  RH  056%=      5-min Rain = 0
KLA1 111514Z 14011KT 29/19 A3013 RMK A01 T02860191  RH  056%=      5-min Rain = 0
KLA1 111515Z 13010KT 29/19 A3013 RMK A01 T02860191  RH  056%=      5-min Rain = 0
KLA1 111516Z 14011KT 29/19 A3013 RMK A01 T02870191  RH  056%=      5-min Rain = 0
KLA1 111517Z 13012KT 29/19 A3013 RMK A01 T02880191  RH  056%=      5-min Rain = 0
KLA1 111518Z 13009KT 29/19 A3013 RMK A01 T02880191  RH  056%=      5-min Rain = 0
KLA1 111519Z 14008G13KT 29/19 A3013 RMK A01 T02890192  RH  056%=      5-min Rain = 0
KLA1 111520Z 14011KT 29/19 A3013 RMK A01 T02920191  RH  055%=      5-min Rain = 0
KLA1 111521Z 15012KT 29/19 A3013 RMK A01 T02920191  RH  054%=      5-min Rain = 0
KLA1 111522Z 14011KT 29/19 A3013 RMK A01 T02920190  RH  054%=      5-min Rain = 0
KLA1 111523Z 14013KT 29/19 A3012 RMK A01 T02920189  RH  054%=      5-min Rain = 0
KLA1 111524Z 14011KT 29/19 A3012 RMK A01 T02910190  RH  054%=      5-min Rain = 0
KLA1 111525Z 14011KT 29/19 A3012 RMK A01 T02910191  RH  055%=      5-min Rain = 0
KLA1 111526Z 16010KT 29/19 A3012 RMK A01 T02900191  RH  055%=      5-min Rain = 0
KLA1 111527Z 17008KT 29/19 A3012 RMK A01 T02900190  RH  055%=      5-min Rain = 0
KLA1 111528Z 16008KT 29/19 A3012 RMK A01 T02910190  RH  054%=      5-min Rain = 0
KLA1 111529Z 18009G15KT 29/19 A3012 RMK A01 T02930190  RH  054%=      5-min Rain = 0
KLA1 111530Z 17009KT 29/19 A3012 RMK A01 T02940188  RH  053%=      5-min Rain = 0
KLA1 111531Z 18008KT 30/19 A3012 RMK A01 T02950190  RH  053%=      5-min Rain = 0
KLA1 111532Z 18010KT 30/19 A3012 RMK A01 T02970190  RH  052%=      5-min Rain = 0
KLA1 111533Z 14010KT 30/19 A3012 RMK A01 T02980191  RH  053%=      5-min Rain = 0
KLA1 111534Z 14009KT 30/19 A3012 RMK A01 T02980192  RH  053%=      5-min Rain = 0
KLA1 111535Z 13007KT 29/19 A3012 RMK A01 T02940191  RH  054%=      5-min Rain = 0
KLA1 111536Z 14009KT 29/19 A3012 RMK A01 T02940192  RH  054%=      5-min Rain = 0
KLA1 111537Z 13013KT 30/19 A3012 RMK A01 T02960191  RH  053%=      5-min Rain = 0
KLA1 111538Z 13010KT 30/19 A3012 RMK A01 T02960191  RH  053%=      5-min Rain = 0
KLA1 111539Z 13010KT 30/19 A3012 RMK A01 T02960191  RH  053%=      5-min Rain = 0
KLA1 111540Z 14011KT 30/19 A3012 RMK A01 T02970191  RH  053%=      5-min Rain = 0
KLA1 111541Z 16011KT 30/19 A3012 RMK A01 T02980190  RH  053%=      5-min Rain = 0
KLA1 111542Z 16007KT 30/19 A3012 RMK A01 T02970191  RH  053%=      5-min Rain = 0
KLA1 111543Z 14009G14KT 30/19 A3012 RMK A01 T02990192  RH  053%=      5-min Rain = 0
KLA1 111544Z 15011KT 30/19 A3012 RMK A01 T03000190  RH  052%=      5-min Rain = 0
KLA1 111545Z 15010KT 30/19 A3012 RMK A01 T02990190  RH  052%=      5-min Rain = 0
KLA1 111546Z 14010KT 30/19 A3012 RMK A01 T02980190  RH  052%=      5-min Rain = 0
KLA1 111547Z 13007KT 30/19 A3012 RMK A01 T02990191  RH  052%=      5-min Rain = 0
KLA1 111548Z 14010KT 30/19 A3012 RMK A01 T03010190  RH  052%=      5-min Rain = 0
KLA1 111549Z 15012KT 30/19 A3012 RMK A01 T03010187  RH  051%=      5-min Rain = 0
KLA1 111550Z 14009G16KT 30/19 A3012 RMK A01 T02990187  RH  051%=      5-min Rain = 0
KLA1 111551Z 14012KT 30/19 A3012 RMK A01 T03000188  RH  051%=      5-min Rain = 0
KLA1 111552Z 14012KT 30/19 A3012 RMK A01 T03010187  RH  051%=      5-min Rain = 0
KLA1 111553Z 14011KT 30/19 A3012 RMK A01 T03000188  RH  051%=      5-min Rain = 0
KLA1 111554Z 13010KT 30/19 A3012 RMK A01 T03020189  RH  051%=      5-min Rain = 0
KLA1 111555Z 15011KT 30/19 A3012 RMK A01 T03030189  RH  050%=      5-min Rain = 0
KLA1 111556Z 15012KT 30/19 A3012 RMK A01 T03030189  RH  051%=      5-min Rain = 0
KLA1 111557Z 14012KT 30/19 A3012 RMK A01 T03020189  RH  051%=      5-min Rain = 0
KLA1 111558Z 15013KT 30/19 A3012 RMK A01 T03010187  RH  050%=      5-min Rain = 0
KLA1 111559Z 14015KT 30/19 A3012 RMK A01 T03000185  RH  050%=      5-min Rain = 0
KLA1 111600Z 14015KT 30/19 A3012 RMK A01 T03010186  RH  050%=      5-min Rain = 0
KLA1 111601Z 15012KT 30/19 A3012 RMK A01 T03010188  RH  051%=      5-min Rain = 0
KLA1 111602Z 15010G16KT 30/19 A3012 RMK A01 T03010187  RH  051%=      5-min Rain = 0
KLA1 111603Z 14014KT 31/19 A3012 RMK A01 T03050187  RH  049%=      5-min Rain = 0
KLA1 111604Z 13012G17KT 31/19 A3012 RMK A01 T03060186  RH  049%=      5-min Rain = 0
KLA1 111605Z 14011KT 31/19 A3012 RMK A01 T03050187  RH  049%=      5-min Rain = 0
KLA1 111606Z 14012KT 31/19 A3012 RMK A01 T03050185  RH  049%=      5-min Rain = 0
KLA1 111607Z 15011KT 31/18 A3012 RMK A01 T03050184  RH  049%=      5-min Rain = 0
KLA1 111608Z 14012KT 30/19 A3012 RMK A01 T03040185  RH  049%=      5-min Rain = 0
KLA1 111609Z 15012KT 30/19 A3012 RMK A01 T03040185  RH  049%=      5-min Rain = 0
KLA1 111610Z 15008KT 31/19 A3012 RMK A01 T03050185  RH  049%=      5-min Rain = 0
KLA1 111611Z 14008G13KT 31/19 A3012 RMK A01 T03050186  RH  049%=      5-min Rain = 0
KLA1 111612Z 14012KT 31/19 A3012 RMK A01 T03070185  RH  048%=      5-min Rain = 0
KLA1 111613Z 15012KT 31/19 A3012 RMK A01 T03070185  RH  048%=      5-min Rain = 0
KLA1 111614Z 13013KT 31/18 A3012 RMK A01 T03070183  RH  048%=      5-min Rain = 0
KLA1 111615Z 14011G16KT 31/18 A3012 RMK A01 T03070182  RH  047%=      5-min Rain = 0
KLA1 111616Z 14015KT 31/18 A3012 RMK A01 T03080183  RH  047%=      5-min Rain = 0
KLA1 111617Z 13016KT 31/18 A3012 RMK A01 T03080183  RH  047%=      5-min Rain = 0
KLA1 111618Z 13014KT 31/18 A3012 RMK A01 T03050183  RH  048%=      5-min Rain = 0
KLA1 111619Z 13009G14KT 31/18 A3012 RMK A01 T03060184  RH  048%=      5-min Rain = 0
KLA1 111620Z 15011KT 31/19 A3012 RMK A01 T03090185  RH  047%=      5-min Rain = 0
KLA1 111621Z 15009KT 31/18 A3012 RMK A01 T03120183  RH  046%=      5-min Rain = 0
KLA1 111622Z 15013KT 31/18 A3012 RMK A01 T03120184  RH  047%=      5-min Rain = 0
KLA1 111623Z 14013KT 31/18 A3012 RMK A01 T03120182  RH  046%=      5-min Rain = 0
KLA1 111624Z 16010KT 31/18 A3012 RMK A01 T03100183  RH  047%=      5-min Rain = 0
KLA1 111625Z 14009KT 31/18 A3012 RMK A01 T03090183  RH  047%=      5-min Rain = 0
KLA1 111626Z 14007KT 31/18 A3012 RMK A01 T03090184  RH  047%=      5-min Rain = 0
KLA1 111627Z 14012KT 31/18 A3012 RMK A01 T03130184  RH  046%=      5-min Rain = 0
KLA1 111628Z 14010KT 31/18 A3012 RMK A01 T03140184  RH  046%=      5-min Rain = 0
KLA1 111629Z 14011KT 31/18 A3012 RMK A01 T03140183  RH  046%=      5-min Rain = 0
KLA1 111630Z 14013KT 31/18 A3012 RMK A01 T03130184  RH  046%=      5-min Rain = 0
KLA1 111631Z 14013KT 31/18 A3012 RMK A01 T03120183  RH  046%=      5-min Rain = 0
KLA1 111632Z 13012KT 31/18 A3012 RMK A01 T03110183  RH  046%=      5-min Rain = 0
KLA1 111633Z 14011KT 31/18 A3012 RMK A01 T03110184  RH  047%=      5-min Rain = 0
KLA1 111634Z 14011KT 31/18 A3012 RMK A01 T03130184  RH  046%=      5-min Rain = 0
KLA1 111635Z 14014G19KT 32/18 A3012 RMK A01 T03150184  RH  046%=      5-min Rain = 0
KLA1 111636Z 15013KT 32/18 A3012 RMK A01 T03150183  RH  045%=      5-min Rain = 0
KLA1 111637Z 14013KT 32/18 A3012 RMK A01 T03150184  RH  046%=      5-min Rain = 0
KLA1 111638Z 14012G18KT 32/18 A3012 RMK A01 T03170184  RH  045%=      5-min Rain = 0
KLA1 111639Z 15014KT 32/18 A3012 RMK A01 T03170182  RH  045%=      5-min Rain = 0
KLA1 111640Z 14014KT 32/18 A3012 RMK A01 T03150183  RH  045%=      5-min Rain = 0
KLA1 111641Z 13014KT 31/18 A3012 RMK A01 T03140183  RH  046%=      5-min Rain = 0
KLA1 111642Z 14012G17KT 31/18 A3012 RMK A01 T03130184  RH  046%=      5-min Rain = 0
KLA1 111643Z 14013KT 32/18 A3012 RMK A01 T03150184  RH  046%=      5-min Rain = 0
KLA1 111644Z 13014KT 32/18 A3012 RMK A01 T03170182  RH  045%=      5-min Rain = 0
KLA1 111645Z 13011KT 32/18 A3012 RMK A01 T03170182  RH  045%=      5-min Rain = 0
KLA1 111646Z 14010KT 32/18 A3012 RMK A01 T03170183  RH  045%=      5-min Rain = 0
KLA1 111647Z 15009KT 32/18 A3012 RMK A01 T03170182  RH  045%=      5-min Rain = 0
KLA1 111648Z 15009KT 32/18 A3012 RMK A01 T03170183  RH  045%=      5-min Rain = 0
KLA1 111649Z 13012KT 32/19 A3012 RMK A01 T03210185  RH  044%=      5-min Rain = 0
KLA1 111650Z 13010KT 32/18 A3012 RMK A01 T03190183  RH  045%=      5-min Rain = 0
KLA1 111651Z 15012G17KT 32/19 A3012 RMK A01 T03160185  RH  046%=      5-min Rain = 0
KLA1 111652Z 15012KT 32/18 A3012 RMK A01 T03170184  RH  045%=      5-min Rain = 0
KLA1 111653Z 14012KT 32/18 A3012 RMK A01 T03160183  RH  045%=      5-min Rain = 0
KLA1 111654Z 14013KT 32/18 A3012 RMK A01 T03160182  RH  045%=      5-min Rain = 0
KLA1 111655Z 15007G12KT 32/18 A3012 RMK A01 T03150181  RH  045%=      5-min Rain = 0
KLA1 111656Z 15009G14KT 32/18 A3012 RMK A01 T03150183  RH  045%=      5-min Rain = 0
KLA1 111657Z 16011KT 32/18 A3012 RMK A01 T03180183  RH  045%=      5-min Rain = 0
KLA1 111658Z 15012KT 32/18 A3011 RMK A01 T03190184  RH  044%=      5-min Rain = 0
KLA1 111659Z 15011KT 32/18 A3011 RMK A01 T03200182  RH  044%=      5-min Rain = 0
KLA1 111700Z 14010KT 32/18 A3011 RMK A01 T03170182  RH  045%=      5-min Rain = 0
KLA1 111701Z 15012KT 32/18 A3012 RMK A01 T03160183  RH  045%=      5-min Rain = 0
KLA1 111702Z 13012KT 32/18 A3012 RMK A01 T03170182  RH  045%=      5-min Rain = 0
KLA1 111703Z 13011G18KT 32/18 A3011 RMK A01 T03180182  RH  045%=      5-min Rain = 0
KLA1 111704Z 14015KT 32/18 A3011 RMK A01 T03190181  RH  044%=      5-min Rain = 0
KLA1 111705Z 14014KT 32/18 A3011 RMK A01 T03190182  RH  044%=      5-min Rain = 0
KLA1 111706Z 15013KT 32/18 A3011 RMK A01 T03190181  RH  044%=      5-min Rain = 0
KLA1 111707Z 13013KT 32/18 A3011 RMK A01 T03190181  RH  044%=      5-min Rain = 0
KLA1 111708Z 14011KT 32/18 A3011 RMK A01 T03200182  RH  044%=      5-min Rain = 0
KLA1 111709Z 14011KT 33/18 A3011 RMK A01 T03260184  RH  043%=      5-min Rain = 0
KLA1 111710Z 13012KT 33/18 A3011 RMK A01 T03260182  RH  042%=      5-min Rain = 0
KLA1 111711Z 12012KT 32/18 A3011 RMK A01 T03220181  RH  043%=      5-min Rain = 0
KLA1 111712Z 15012KT 32/18 A3011 RMK A01 T03210181  RH  043%=      5-min Rain = 0
KLA1 111713Z 14013KT 32/18 A3011 RMK A01 T03220180  RH  043%=      5-min Rain = 0
KLA1 111714Z 15012KT 32/18 A3011 RMK A01 T03240179  RH  042%=      5-min Rain = 0
KLA1 111715Z 15009KT 32/18 A3011 RMK A01 T03220179  RH  043%=      5-min Rain = 0
KLA1 111716Z 14012G17KT 32/18 A3011 RMK A01 T03220180  RH  043%=      5-min Rain = 0
KLA1 111717Z 14013KT 32/18 A3011 RMK A01 T03230178  RH  042%=      5-min Rain = 0
KLA1 111718Z 15012KT 32/18 A3011 RMK A01 T03230180  RH  043%=      5-min Rain = 0
KLA1 111719Z 16015KT 32/18 A3011 RMK A01 T03210179  RH  043%=      5-min Rain = 0
KLA1 111720Z 15013G18KT 32/18 A3011 RMK A01 T03190180  RH  043%=      5-min Rain = 0
KLA1 111721Z 15010G18KT 32/18 A3011 RMK A01 T03180180  RH  044%=      5-min Rain = 0
KLA1 111722Z 14015KT 32/18 A3011 RMK A01 T03190177  RH  043%=      5-min Rain = 0
KLA1 111723Z 13012KT 32/18 A3011 RMK A01 T03200180  RH  043%=      5-min Rain = 0
KLA1 111724Z 12009KT 32/18 A3011 RMK A01 T03220182  RH  043%=      5-min Rain = 0
KLA1 111725Z 14010KT 32/18 A3011 RMK A01 T03240182  RH  043%=      5-min Rain = 0
KLA1 111726Z 13014G20KT 32/18 A3011 RMK A01 T03240179  RH  042%=      5-min Rain = 0
KLA1 111727Z 14011G17KT 32/18 A3011 RMK A01 T03240179  RH  042%=      5-min Rain = 0
KLA1 111728Z 13016G22KT 32/18 A3011 RMK A01 T03230176  RH  042%=      5-min Rain = 0
KLA1 111729Z 12012KT 32/17 A3011 RMK A01 T03220174  RH  041%=      5-min Rain = 0
KLA1 111730Z 14012KT 32/18 A3011 RMK A01 T03220178  RH  042%=      5-min Rain = 0
KLA1 111731Z 14011KT 32/18 A3011 RMK A01 T03220179  RH  042%=      5-min Rain = 0
KLA1 111732Z 14012KT 32/18 A3011 RMK A01 T03240177  RH  042%=      5-min Rain = 0
KLA1 111733Z 13010KT 32/18 A3011 RMK A01 T03230178  RH  042%=      5-min Rain = 0
KLA1 111734Z 14012G17KT 32/18 A3011 RMK A01 T03190178  RH  043%=      5-min Rain = 0
KLA1 111735Z 14012G20KT 32/18 A3011 RMK A01 T03170179  RH  044%=      5-min Rain = 0
KLA1 111736Z 14015KT 32/18 A3011 RMK A01 T03180180  RH  044%=      5-min Rain = 0
KLA1 111737Z 15012KT 32/18 A3011 RMK A01 T03200177  RH  043%=      5-min Rain = 0
KLA1 111738Z 15011KT 32/18 A3011 RMK A01 T03210175  RH  042%=      5-min Rain = 0
KLA1 111739Z 14010KT 32/17 A3011 RMK A01 T03230174  RH  041%=      5-min Rain = 0
KLA1 111740Z 16009KT 33/18 A3011 RMK A01 T03260175  RH  041%=      5-min Rain = 0
KLA1 111741Z 14011G16KT 33/18 A3011 RMK A01 T03270178  RH  041%=      5-min Rain = 0
KLA1 111742Z 15012KT 33/18 A3011 RMK A01 T03270176  RH  041%=      5-min Rain = 0
KLA1 111743Z 14012KT 33/18 A3011 RMK A01 T03270177  RH  041%=      5-min Rain = 0
KLA1 111744Z 16011KT 33/18 A3011 RMK A01 T03260176  RH  041%=      5-min Rain = 0
KLA1 111745Z 15013KT 32/18 A3011 RMK A01 T03220176  RH  042%=      5-min Rain = 0
KLA1 111746Z 15012KT 32/18 A3011 RMK A01 T03230175  RH  041%=      5-min Rain = 0
KLA1 111747Z 15012KT 33/18 A3011 RMK A01 T03250176  RH  041%=      5-min Rain = 0
KLA1 111748Z 16011KT 33/18 A3011 RMK A01 T03250176  RH  041%=      5-min Rain = 0
KLA1 111749Z 17012KT 33/18 A3011 RMK A01 T03250176  RH  041%=      5-min Rain = 0
KLA1 111750Z 17009KT 32/17 A3011 RMK A01 T03240171  RH  040%=      5-min Rain = 0
KLA1 111751Z 16008KT 32/17 A3011 RMK A01 T03230170  RH  040%=      5-min Rain = 0
KLA1 111752Z 16014KT 32/17 A3011 RMK A01 T03230173  RH  041%=      5-min Rain = 0
KLA1 111753Z 15010KT 32/17 A3011 RMK A01 T03240174  RH  041%=      5-min Rain = 0
KLA1 111754Z 13012KT 33/18 A3011 RMK A01 T03250176  RH  041%=      5-min Rain = 0
KLA1 111755Z 14011KT 33/17 A301 RMK A01 T03260174  RH  041%=      5-min Rain = 0
KLA1 111756Z 13008G13KT 32/17 A301 RMK A01 T03230173  RH  041%=      5-min Rain = 0
KLA1 111757Z 13010KT 32/17 A301 RMK A01 T03230174  RH  041%=      5-min Rain = 0
KLA1 111758Z 14013KT 33/18 A301 RMK A01 T03250175  RH  041%=      5-min Rain = 0
KLA1 111759Z 15013KT 33/18 A301 RMK A01 T03260176  RH  041%=      5-min Rain = 0
KLA1 111800Z 13010KT 32/18 A301 RMK A01 T03230176  RH  042%=      5-min Rain = 0
KLA1 111801Z 15009G14KT 32/18 A301 RMK A01 T03220177  RH  042%=      5-min Rain = 0
KLA1 111802Z 17011KT 32/18 A301 RMK A01 T03220179  RH  043%=      5-min Rain = 0
KLA1 111803Z 18010G17KT 32/18 A301 RMK A01 T03230179  RH  042%=      5-min Rain = 0
KLA1 111804Z 18012KT 32/18 A301 RMK A01 T03230176  RH  042%=      5-min Rain = 0
KLA1 111805Z 18009KT 32/18 A301 RMK A01 T03230176  RH  041%=      5-min Rain = 0
KLA1 111806Z 17013KT 32/18 A301 RMK A01 T03230176  RH  041%=      5-min Rain = 0
KLA1 111807Z 16011KT 33/18 A301 RMK A01 T03250177  RH  041%=      5-min Rain = 0
KLA1 111808Z 17012KT 33/18 A301 RMK A01 T03250177  RH  041%=      5-min Rain = 0
KLA1 111809Z 17012KT 32/17 A301 RMK A01 T03240168  RH  039%=      5-min Rain = 0
KLA1 111810Z 18010KT 33/16 A301 RMK A01 T03250161  RH  037%=      5-min Rain = 0
KLA1 111811Z 17012G17KT 33/16 A301 RMK A01 T03300158  RH  036%=      5-min Rain = 0
KLA1 111812Z 18010G15KT 33/16 A301 RMK A01 T03300158  RH  036%=      5-min Rain = 0
KLA1 111813Z 19010KT 33/17 A301 RMK A01 T03300166  RH  037%=      5-min Rain = 0
KLA1 111814Z 17011KT 33/17 A301 RMK A01 T03270167  RH  038%=      5-min Rain = 0
KLA1 111815Z 17009KT 33/17 A301 RMK A01 T03250170  RH  040%=      5-min Rain = 0
KLA1 111816Z 18007KT 33/17 A301 RMK A01 T03250170  RH  040%=      5-min Rain = 0
KLA1 111817Z 18010KT 33/17 A301 RMK A01 T03250172  RH  040%=      5-min Rain = 0
KLA1 111818Z 17011KT 33/17 A301 RMK A01 T03290171  RH  039%=      5-min Rain = 0
KLA1 111819Z 16009KT 33/17 A301 RMK A01 T03310172  RH  039%=      5-min Rain = 0
KLA1 111820Z 17010KT 33/17 A301 RMK A01 T03310173  RH  039%=      5-min Rain = 0
KLA1 111821Z 18009KT 33/17 A301 RMK A01 T03310172  RH  039%=      5-min Rain = 0
KLA1 111822Z 18011KT 33/17 A3009 RMK A01 T03320173  RH  039%=      5-min Rain = 0
KLA1 111823Z 18007KT 33/17 A3009 RMK A01 T03290173  RH  040%=      5-min Rain = 0
KLA1 111824Z 18011KT 33/17 A3009 RMK A01 T03260173  RH  040%=      5-min Rain = 0
KLA1 111825Z 18009KT 33/17 A3009 RMK A01 T03280174  RH  040%=      5-min Rain = 0
KLA1 111826Z 19011KT 33/18 A3009 RMK A01 T03300175  RH  040%=      5-min Rain = 0
KLA1 111827Z 14007KT 33/17 A3009 RMK A01 T03320174  RH  039%=      5-min Rain = 0
KLA1 111828Z 15006KT 33/17 A3009 RMK A01 T03320174  RH  039%=      5-min Rain = 0
KLA1 111829Z 17008G13KT 33/17 A3009 RMK A01 T03310173  RH  039%=      5-min Rain = 0
KLA1 111830Z 19010G15KT 33/16 A3009 RMK A01 T03330161  RH  036%=      5-min Rain = 0
KLA1 111831Z 19013KT 33/16 A3009 RMK A01 T03330161  RH  036%=      5-min Rain = 0
KLA1 111832Z 18010KT 33/16 A3009 RMK A01 T03320162  RH  036%=      5-min Rain = 0
KLA1 111833Z 16013G18KT 33/16 A3009 RMK A01 T03340161  RH  036%=      5-min Rain = 0
KLA1 111834Z 15012KT 34/15 A3009 RMK A01 T03350146  RH  032%=      5-min Rain = 0
KLA1 111835Z 15011G16KT 34/14 A3009 RMK A01 T03350144  RH  032%=      5-min Rain = 0
KLA1 111836Z 17012KT 34/15 A3009 RMK A01 T03360152  RH  033%=      5-min Rain = 0
KLA1 111837Z 16012KT 34/16 A3009 RMK A01 T03370159  RH  035%=      5-min Rain = 0
KLA1 111838Z 16014KT 34/16 A3009 RMK A01 T03370162  RH  035%=      5-min Rain = 0
KLA1 111839Z 16011KT 34/16 A3009 RMK A01 T03360160  RH  035%=      5-min Rain = 0
KLA1 111840Z 16010KT 33/16 A3009 RMK A01 T03330161  RH  036%=      5-min Rain = 0
KLA1 111841Z 16012KT 33/16 A3009 RMK A01 T03310164  RH  037%=      5-min Rain = 0
KLA1 111842Z 14010KT 33/17 A3009 RMK A01 T03330167  RH  037%=      5-min Rain = 0
KLA1 111843Z 15010KT 33/17 A3009 RMK A01 T03340166  RH  037%=      5-min Rain = 0
KLA1 111844Z 14005G10KT 33/17 A3009 RMK A01 T03330167  RH  037%=      5-min Rain = 0
KLA1 111845Z 15003KT 33/17 A3009 RMK A01 T03330168  RH  037%=      5-min Rain = 0
KLA1 111846Z 18008KT 33/17 A3009 RMK A01 T03330167  RH  037%=      5-min Rain = 0
KLA1 111847Z 17008KT 33/17 A3008 RMK A01 T03280166  RH  038%=      5-min Rain = 0
KLA1 111848Z 17014KT 33/17 A3008 RMK A01 T03300165  RH  037%=      5-min Rain = 0
KLA1 111849Z 15013KT 33/17 A3008 RMK A01 T03340165  RH  036%=      5-min Rain = 0
KLA1 111850Z 14012KT 33/17 A3008 RMK A01 T03340165  RH  037%=      5-min Rain = 0
KLA1 111851Z 15011KT 33/17 A3008 RMK A01 T03330165  RH  036%=      5-min Rain = 0
KLA1 111852Z 16010KT 33/16 A3008 RMK A01 T03340163  RH  036%=      5-min Rain = 0
KLA1 111853Z 17013KT 34/16 A3008 RMK A01 T03350164  RH  036%=      5-min Rain = 0
KLA1 111854Z 16014KT 34/17 A3008 RMK A01 T03360166  RH  036%=      5-min Rain = 0
KLA1 111855Z 14013KT 34/17 A3008 RMK A01 T03370168  RH  036%=      5-min Rain = 0
KLA1 111856Z 14010KT 34/17 A3008 RMK A01 T03370168  RH  036%=      5-min Rain = 0
KLA1 111857Z 16012G17KT 34/17 A3008 RMK A01 T03370169  RH  037%=      5-min Rain = 0
KLA1 111858Z 15013KT 34/17 A3008 RMK A01 T03380169  RH  037%=      5-min Rain = 0
KLA1 111859Z 16011KT 34/17 A3008 RMK A01 T03370169  RH  037%=      5-min Rain = 0
KLA1 111900Z 18015KT 34/17 A3008 RMK A01 T03350170  RH  037%=      5-min Rain = 0
KLA1 111901Z 18010KT 33/17 A3008 RMK A01 T03340169  RH  037%=      5-min Rain = 0
KLA1 111902Z 19009KT 33/17 A3008 RMK A01 T03330169  RH  037%=      5-min Rain = 0
KLA1 111903Z 16011KT 33/17 A3008 RMK A01 T03340169  RH  037%=      5-min Rain = 0
KLA1 111904Z 16010KT 34/17 A3008 RMK A01 T03360166  RH  036%=      5-min Rain = 0
KLA1 111905Z 15007KT 34/17 A3008 RMK A01 T03350166  RH  037%=      5-min Rain = 0
KLA1 111906Z 14009KT 34/17 A3008 RMK A01 T03350167  RH  037%=      5-min Rain = 0
KLA1 111907Z 14013KT 34/17 A3008 RMK A01 T03360167  RH  037%=      5-min Rain = 0
KLA1 111908Z 15014KT 34/17 A3008 RMK A01 T03360165  RH  036%=      5-min Rain = 0
KLA1 111909Z 15011KT 34/17 A3008 RMK A01 T03370166  RH  036%=      5-min Rain = 0
KLA1 111910Z 16013G18KT 34/17 A3008 RMK A01 T03380166  RH  036%=      5-min Rain = 0
KLA1 111911Z 17012KT 34/17 A3008 RMK A01 T03380166  RH  036%=      5-min Rain = 0
KLA1 111912Z 17009KT 34/17 A3008 RMK A01 T03370167  RH  036%=      5-min Rain = 0
KLA1 111913Z 17007KT 34/17 A3007 RMK A01 T03370166  RH  036%=      5-min Rain = 0
KLA1 111914Z 18005KT 34/17 A3007 RMK A01 T03350166  RH  037%=      5-min Rain = 0
KLA1 111915Z 15007G14KT 33/17 A3007 RMK A01 T03330168  RH  037%=      5-min Rain = 0
KLA1 111916Z 16010KT 34/17 A3007 RMK A01 T03350171  RH  038%=      5-min Rain = 0
KLA1 111917Z 14012KT 34/17 A3007 RMK A01 T03360171  RH  037%=      5-min Rain = 0
KLA1 111918Z 14011G16KT 34/17 A3007 RMK A01 T03370171  RH  037%=      5-min Rain = 0
KLA1 111919Z 13011KT 34/17 A3007 RMK A01 T03370172  RH  038%=      5-min Rain = 0
KLA1 111920Z 14010KT 34/17 A3007 RMK A01 T03380170  RH  037%=      5-min Rain = 0
KLA1 111921Z 15009KT 34/17 A3007 RMK A01 T03390168  RH  036%=      5-min Rain = 0
KLA1 111922Z 15014KT 34/17 A3007 RMK A01 T03380170  RH  037%=      5-min Rain = 0
KLA1 111923Z 15012KT 34/17 A3007 RMK A01 T03410169  RH  036%=      5-min Rain = 0
KLA1 111924Z 15013KT 34/17 A3007 RMK A01 T03400168  RH  036%=      5-min Rain = 0
KLA1 111925Z 16012KT 34/17 A3007 RMK A01 T03420169  RH  036%=      5-min Rain = 0
KLA1 111926Z 16010KT 34/17 A3007 RMK A01 T03400169  RH  036%=      5-min Rain = 0
KLA1 111927Z 15010KT 34/17 A3007 RMK A01 T03370169  RH  037%=      5-min Rain = 0
KLA1 111928Z 16008G15KT 34/17 A3007 RMK A01 T03360169  RH  037%=      5-min Rain = 0
KLA1 111929Z 17014KT 34/17 A3007 RMK A01 T03360170  RH  037%=      5-min Rain = 0
KLA1 111930Z 17013KT 34/17 A3007 RMK A01 T03390169  RH  036%=      5-min Rain = 0
KLA1 111931Z 17010KT 34/17 A3006 RMK A01 T03400168  RH  036%=      5-min Rain = 0
KLA1 111932Z 14009KT 34/17 A3006 RMK A01 T03400167  RH  036%=      5-min Rain = 0
KLA1 111933Z 14008KT 34/17 A3006 RMK A01 T03390167  RH  036%=      5-min Rain = 0
KLA1 111934Z 17011KT 34/17 A3006 RMK A01 T03390169  RH  036%=      5-min Rain = 0
KLA1 111935Z 15014G20KT 34/17 A3006 RMK A01 T03410169  RH  036%=      5-min Rain = 0
KLA1 111936Z 14013KT 34/17 A3006 RMK A01 T03430168  RH  035%=      5-min Rain = 0
KLA1 111937Z 14011KT 34/17 A3006 RMK A01 T03440169  RH  035%=      5-min Rain = 0
KLA1 111938Z 15013KT 35/17 A3006 RMK A01 T03470168  RH  035%=      5-min Rain = 0
KLA1 111939Z 15008KT 35/17 A3006 RMK A01 T03450168  RH  035%=      5-min Rain = 0
KLA1 111940Z 17012KT 35/17 A3006 RMK A01 T03450168  RH  035%=      5-min Rain = 0
KLA1 111941Z 16010KT 35/17 A3006 RMK A01 T03450168  RH  035%=      5-min Rain = 0
KLA1 111942Z 15008KT 35/17 A3006 RMK A01 T03450169  RH  035%=      5-min Rain = 0
KLA1 111943Z 16011KT 35/17 A3006 RMK A01 T03470168  RH  035%=      5-min Rain = 0
KLA1 111944Z 17010KT 35/17 A3006 RMK A01 T03470172  RH  035%=      5-min Rain = 0
KLA1 111945Z 17008KT 35/17 A3006 RMK A01 T03480172  RH  035%=      5-min Rain = 0
KLA1 111946Z 17006KT 34/17 A3006 RMK A01 T03440172  RH  036%=      5-min Rain = 0
KLA1 111947Z 15007KT 34/17 A3006 RMK A01 T03410172  RH  037%=      5-min Rain = 0
KLA1 111948Z 16008KT 34/17 A3006 RMK A01 T03390173  RH  037%=      5-min Rain = 0
KLA1 111949Z 16008KT 34/17 A3006 RMK A01 T03390172  RH  037%=      5-min Rain = 0
KLA1 111950Z 18006KT 34/17 A3005 RMK A01 T03370173  RH  038%=      5-min Rain = 0
KLA1 111951Z 15013G19KT 34/17 A3005 RMK A01 T03370173  RH  038%=      5-min Rain = 0
KLA1 111952Z 15014KT 34/17 A3006 RMK A01 T03380169  RH  037%=      5-min Rain = 0
KLA1 111953Z 15013KT 34/17 A3006 RMK A01 T03400167  RH  036%=      5-min Rain = 0
KLA1 111954Z 15015KT 34/17 A3005 RMK A01 T03430168  RH  035%=      5-min Rain = 0
KLA1 111955Z 16012KT 34/17 A3005 RMK A01 T03420166  RH  035%=      5-min Rain = 0
KLA1 111956Z 16010KT 34/17 A3005 RMK A01 T03390166  RH  036%=      5-min Rain = 0
KLA1 111957Z 12007KT 34/17 A3005 RMK A01 T03410168  RH  036%=      5-min Rain = 0
KLA1 111958Z 10008KT 34/17 A3005 RMK A01 T03440168  RH  035%=      5-min Rain = 0
KLA1 111959Z 10006KT 34/17 A3005 RMK A01 T03430167  RH  035%=      5-min Rain = 0
KLA1 112000Z 12005KT 34/17 A3005 RMK A01 T03400167  RH  036%=      5-min Rain = 0
KLA1 112001Z 12007KT 34/17 A3005 RMK A01 T03360166  RH  036%=      5-min Rain = 0
KLA1 112002Z 14011G18KT 33/17 A3005 RMK A01 T03340168  RH  037%=      5-min Rain = 0
KLA1 112003Z 15014G19KT 34/17 A3005 RMK A01 T03350169  RH  037%=      5-min Rain = 0
KLA1 112004Z 17011KT 34/17 A3005 RMK A01 T03370170  RH  037%=      5-min Rain = 0
KLA1 112005Z 14014KT 34/17 A3005 RMK A01 T03390170  RH  037%=      5-min Rain = 0
KLA1 112006Z 15012KT 34/17 A3005 RMK A01 T03420167  RH  035%=      5-min Rain = 0
KLA1 112007Z 16011KT 34/17 A3005 RMK A01 T03430168  RH  035%=      5-min Rain = 0
KLA1 112008Z 15009KT 35/17 A3005 RMK A01 T03450169  RH  035%=      5-min Rain = 0
KLA1 112009Z 16008KT 35/17 A3005 RMK A01 T03460167  RH  034%=      5-min Rain = 0
KLA1 112010Z 18005KT 35/17 A3005 RMK A01 T03450165  RH  034%=      5-min Rain = 0
KLA1 112011Z 16008KT 34/17 A3005 RMK A01 T03430165  RH  035%=      5-min Rain = 0
KLA1 112012Z 17009KT 34/17 A3005 RMK A01 T03430168  RH  035%=      5-min Rain = 0
KLA1 112013Z 16014G19KT 34/17 A3004 RMK A01 T03440168  RH  035%=      5-min Rain = 0
KLA1 112014Z 14012G18KT 35/17 A3005 RMK A01 T03450166  RH  034%=      5-min Rain = 0
KLA1 112015Z 17010G16KT 35/17 A3004 RMK A01 T03460165  RH  034%=      5-min Rain = 0
KLA1 112016Z 17012KT 35/16 A3004 RMK A01 T03450163  RH  034%=      5-min Rain = 0
KLA1 112017Z 18011KT 34/16 A3004 RMK A01 T03440163  RH  034%=      5-min Rain = 0
KLA1 112018Z 18011KT 34/16 A3004 RMK A01 T03430162  RH  034%=      5-min Rain = 0
KLA1 112019Z 18010KT 34/16 A3004 RMK A01 T03440161  RH  034%=      5-min Rain = 0
KLA1 112020Z 18008KT 35/16 A3004 RMK A01 T03460161  RH  033%=      5-min Rain = 0
KLA1 112021Z 16010G15KT 35/16 A3004 RMK A01 T03450162  RH  034%=      5-min Rain = 0
KLA1 112022Z 15014KT 35/16 A3004 RMK A01 T03470159  RH  033%=      5-min Rain = 0
KLA1 112023Z 17011G16KT 35/16 A3004 RMK A01 T03480158  RH  032%=      5-min Rain = 0
KLA1 112024Z 16014G19KT 35/16 A3004 RMK A01 T03470155  RH  032%=      5-min Rain = 0
KLA1 112025Z 15016G21KT 34/15 A3004 RMK A01 T03440154  RH  032%=      5-min Rain = 0
KLA1 112026Z 17011G16KT 34/16 A3004 RMK A01 T03440156  RH  032%=      5-min Rain = 0
KLA1 112027Z 16012G17KT 35/16 A3004 RMK A01 T03480159  RH  032%=      5-min Rain = 0
KLA1 112028Z 17013KT 35/16 A3004 RMK A01 T03490158  RH  032%=      5-min Rain = 0
KLA1 112029Z 17012KT 35/16 A3004 RMK A01 T03480157  RH  032%=      5-min Rain = 0
KLA1 112030Z 18015KT 35/16 A3004 RMK A01 T03470157  RH  032%=      5-min Rain = 0
KLA1 112031Z 18012KT 35/16 A3004 RMK A01 T03460156  RH  032%=      5-min Rain = 0
KLA1 112032Z 18009KT 35/16 A3004 RMK A01 T03460157  RH  032%=      5-min Rain = 0
KLA1 112033Z 17008KT 35/16 A3004 RMK A01 T03470157  RH  032%=      5-min Rain = 0
KLA1 112034Z 17004KT 35/16 A3004 RMK A01 T03450156  RH  032%=      5-min Rain = 0
KLA1 112035Z 19008KT 34/16 A3003 RMK A01 T03440158  RH  033%=      5-min Rain = 0
KLA1 112036Z 18008KT 35/16 A3003 RMK A01 T03460157  RH  032%=      5-min Rain = 0
KLA1 112037Z 17011KT 35/16 A3004 RMK A01 T03470156  RH  032%=      5-min Rain = 0
KLA1 112038Z 17012G17KT 35/15 A3004 RMK A01 T03490153  RH  031%=      5-min Rain = 0
KLA1 112039Z 18010KT 35/15 A3003 RMK A01 T03460152  RH  031%=      5-min Rain = 0
KLA1 112040Z 17010KT 35/15 A3003 RMK A01 T03460152  RH  031%=      5-min Rain = 0
KLA1 112041Z 16013KT 35/15 A3003 RMK A01 T03480152  RH  031%=      5-min Rain = 0
KLA1 112042Z 17011KT 35/15 A3003 RMK A01 T03480153  RH  031%=      5-min Rain = 0
KLA1 112043Z 14009KT 35/15 A3003 RMK A01 T03470153  RH  031%=      5-min Rain = 0
KLA1 112044Z 15007KT 35/15 A3003 RMK A01 T03470152  RH  031%=      5-min Rain = 0
KLA1 112045Z 14010KT 35/16 A3003 RMK A01 T03480155  RH  032%=      5-min Rain = 0
KLA1 112046Z 13011KT 35/16 A3003 RMK A01 T03510156  RH  031%=      5-min Rain = 0
KLA1 112047Z 13010KT 35/16 A3003 RMK A01 T03520155  RH  031%=      5-min Rain = 0
KLA1 112048Z 13007KT 35/16 A3003 RMK A01 T03510155  RH  031%=      5-min Rain = 0
KLA1 112049Z 13007KT 35/16 A3003 RMK A01 T03470155  RH  032%=      5-min Rain = 0
KLA1 112050Z 13007KT 35/16 A3003 RMK A01 T03450156  RH  032%=      5-min Rain = 0
KLA1 112051Z 14013G18KT 35/16 A3003 RMK A01 T03460157  RH  032%=      5-min Rain = 0
KLA1 112052Z 15015G20KT 35/16 A3003 RMK A01 T03480155  RH  031%=      5-min Rain = 0
KLA1 112053Z 16010KT 35/16 A3003 RMK A01 T03480155  RH  032%=      5-min Rain = 0
KLA1 112054Z 17013KT 35/16 A3003 RMK A01 T03490156  RH  032%=      5-min Rain = 0
KLA1 112055Z 17014KT 35/16 A3003 RMK A01 T03490157  RH  032%=      5-min Rain = 0
KLA1 112056Z 16013KT 35/16 A3003 RMK A01 T03480159  RH  032%=      5-min Rain = 0
KLA1 112057Z 17008KT 35/16 A3003 RMK A01 T03470159  RH  033%=      5-min Rain = 0
KLA1 112058Z 15009KT 34/16 A3002 RMK A01 T03440158  RH  033%=      5-min Rain = 0
KLA1 112059Z 14013KT 34/16 A3003 RMK A01 T03440155  RH  032%=      5-min Rain = 0
KLA1 112100Z 14009KT 35/15 A3002 RMK A01 T03450154  RH  032%=      5-min Rain = 0
KLA1 112101Z 13009KT 34/15 A3002 RMK A01 T03440154  RH  032%=      5-min Rain = 0
KLA1 112102Z 16011KT 35/16 A3002 RMK A01 T03470156  RH  032%=      5-min Rain = 0
KLA1 112103Z 15013KT 35/16 A3002 RMK A01 T03490156  RH  032%=      5-min Rain = 0
KLA1 112104Z 15013KT 35/16 A3002 RMK A01 T03490159  RH  032%=      5-min Rain = 0
KLA1 112105Z 15009KT 35/16 A3002 RMK A01 T03480159  RH  032%=      5-min Rain = 0
KLA1 112106Z 15012G17KT 35/16 A3002 RMK A01 T03480159  RH  032%=      5-min Rain = 0
KLA1 112107Z 15014KT 35/16 A3002 RMK A01 T03490155  RH  032%=      5-min Rain = 0
KLA1 112108Z 15008KT 35/16 A3002 RMK A01 T03460155  RH  032%=      5-min Rain = 0
KLA1 112109Z 16007KT 35/16 A3002 RMK A01 T03460155  RH  032%=      5-min Rain = 0
KLA1 112110Z 20005KT 35/16 A3002 RMK A01 T03450155  RH  032%=      5-min Rain = 0
KLA1 112111Z 17005G11KT 35/16 A3002 RMK A01 T03460155  RH  032%=      5-min Rain = 0
KLA1 112112Z 15012KT 35/16 A3002 RMK A01 T03480157  RH  032%=      5-min Rain = 0
KLA1 112113Z 15014G19KT 35/16 A3002 RMK A01 T03520158  RH  032%=      5-min Rain = 0
KLA1 112114Z 15014KT 35/16 A3002 RMK A01 T03540157  RH  031%=      5-min Rain = 0
KLA1 112115Z 16013KT 35/16 A3002 RMK A01 T03520157  RH  031%=      5-min Rain = 0
KLA1 112116Z 17010KT 35/16 A3002 RMK A01 T03500159  RH  032%=      5-min Rain = 0
KLA1 112117Z 17013KT 35/16 A3002 RMK A01 T03510159  RH  032%=      5-min Rain = 0
KLA1 112118Z 17010KT 35/16 A3002 RMK A01 T03480159  RH  032%=      5-min Rain = 0
KLA1 112119Z 17006KT 35/16 A3001 RMK A01 T03460159  RH  033%=      5-min Rain = 0
KLA1 112120Z 17005KT 35/16 A3001 RMK A01 T03470161  RH  033%=      5-min Rain = 0
KLA1 112121Z 17008KT 35/16 A3001 RMK A01 T03530161  RH  032%=      5-min Rain = 0
KLA1 112122Z 14010G17KT 36/16 A3001 RMK A01 T03580162  RH  031%=      5-min Rain = 0
KLA1 112123Z 15017KT 36/16 A3001 RMK A01 T03580160  RH  031%=      5-min Rain = 0
KLA1 112124Z 15014KT 36/16 A3001 RMK A01 T03550158  RH  031%=      5-min Rain = 0
KLA1 112125Z 15017KT 35/16 A3001 RMK A01 T03520158  RH  032%=      5-min Rain = 0
KLA1 112126Z 14014KT 35/16 A3001 RMK A01 T03520158  RH  032%=      5-min Rain = 0
KLA1 112127Z 14010KT 35/16 A3001 RMK A01 T03510158  RH  032%=      5-min Rain = 0
KLA1 112128Z 17011G17KT 35/16 A3001 RMK A01 T03490158  RH  032%=      5-min Rain = 0
KLA1 112129Z 17014KT 35/16 A3001 RMK A01 T03500157  RH  032%=      5-min Rain = 0
KLA1 112130Z 16012KT 35/16 A3001 RMK A01 T03480156  RH  032%=      5-min Rain = 0
KLA1 112131Z 17012G18KT 35/16 A30 RMK A01 T03470157  RH  032%=      5-min Rain = 0
KLA1 112132Z 18012G17KT 35/16 A30 RMK A01 T03470156  RH  032%=      5-min Rain = 0
KLA1 112133Z 17012KT 35/16 A30 RMK A01 T03480155  RH  032%=      5-min Rain = 0
KLA1 112134Z 16012KT 35/16 A30 RMK A01 T03480156  RH  032%=      5-min Rain = 0
KLA1 112135Z 16009KT 35/16 A30 RMK A01 T03500156  RH  032%=      5-min Rain = 0
KLA1 112136Z 16012KT 35/16 A30 RMK A01 T03540157  RH  031%=      5-min Rain = 0
KLA1 112137Z 16009KT 36/16 A30 RMK A01 T03550155  RH  030%=      5-min Rain = 0
KLA1 112138Z 15009G14KT 35/16 A30 RMK A01 T03520156  RH  031%=      5-min Rain = 0
KLA1 112139Z 15014KT 35/15 A30 RMK A01 T03540154  RH  031%=      5-min Rain = 0
KLA1 112140Z 13012KT 36/15 A30 RMK A01 T03550153  RH  030%=      5-min Rain = 0
KLA1 112141Z 13014KT 35/15 A30 RMK A01 T03530152  RH  030%=      5-min Rain = 0
KLA1 112142Z 15011KT 35/15 A30 RMK A01 T03500152  RH  031%=      5-min Rain = 0
KLA1 112143Z 15011KT 35/16 A30 RMK A01 T03490155  RH  031%=      5-min Rain = 0
KLA1 112144Z 14014KT 35/16 A30 RMK A01 T03520156  RH  031%=      5-min Rain = 0
KLA1 112145Z 14013KT 35/15 A30 RMK A01 T03520154  RH  031%=      5-min Rain = 0
KLA1 112146Z 14012KT 35/16 A30 RMK A01 T03510157  RH  031%=      5-min Rain = 0
KLA1 112147Z 13012KT 35/16 A30 RMK A01 T03490159  RH  032%=      5-min Rain = 0
KLA1 112148Z 13008KT 35/16 A30 RMK A01 T03480161  RH  033%=      5-min Rain = 0
KLA1 112149Z 12009G14KT 35/16 A2999 RMK A01 T03470161  RH  033%=      5-min Rain = 0
KLA1 112150Z 14010KT 35/16 A2999 RMK A01 T03500160  RH  032%=      5-min Rain = 0
KLA1 112151Z 16006KT 35/16 A2999 RMK A01 T03530156  RH  031%=      5-min Rain = 0
KLA1 112152Z 16008KT 35/16 A2999 RMK A01 T03520157  RH  031%=      5-min Rain = 0
KLA1 112153Z 16015KT 35/16 A2999 RMK A01 T03520155  RH  031%=      5-min Rain = 0
KLA1 112154Z 16013KT 35/15 A2999 RMK A01 T03500154  RH  031%=      5-min Rain = 0
KLA1 112155Z 14013KT 35/16 A2999 RMK A01 T03490155  RH  031%=      5-min Rain = 0
KLA1 112156Z 15016KT 35/16 A2999 RMK A01 T03490155  RH  031%=      5-min Rain = 0
KLA1 112157Z 15011KT 35/15 A2999 RMK A01 T03490153  RH  031%=      5-min Rain = 0
KLA1 112158Z 16010KT 35/15 A2999 RMK A01 T03500154  RH  031%=      5-min Rain = 0
KLA1 112159Z 17010KT 35/16 A2999 RMK A01 T03510155  RH  031%=      5-min Rain = 0
KLA1 112200Z 17008KT 35/15 A2999 RMK A01 T03490154  RH  031%=      5-min Rain = 0
KLA1 112201Z 15008KT 35/15 A2999 RMK A01 T03480154  RH  031%=      5-min Rain = 0
KLA1 112202Z 13009KT 35/15 A2999 RMK A01 T03470154  RH  032%=      5-min Rain = 0
KLA1 112203Z 12007KT 35/15 A2999 RMK A01 T03480154  RH  032%=      5-min Rain = 0
KLA1 112204Z 13010KT 35/15 A2999 RMK A01 T03480154  RH  031%=      5-min Rain = 0
KLA1 112205Z 14012KT 35/16 A2999 RMK A01 T03510156  RH  031%=      5-min Rain = 0
KLA1 112206Z 14012KT 35/16 A2999 RMK A01 T03530156  RH  031%=      5-min Rain = 0
KLA1 112207Z 12012KT 35/16 A2999 RMK A01 T03520156  RH  031%=      5-min Rain = 0
KLA1 112208Z 13006KT 35/16 A2998 RMK A01 T03490157  RH  032%=      5-min Rain = 0
KLA1 112209Z 14008G13KT 35/16 A2998 RMK A01 T03500158  RH  032%=      5-min Rain = 0
KLA1 112210Z 15013KT 35/16 A2999 RMK A01 T03490158  RH  032%=      5-min Rain = 0
KLA1 112211Z 15011KT 35/16 A2998 RMK A01 T03490158  RH  032%=      5-min Rain = 0
KLA1 112212Z 16011KT 35/16 A2998 RMK A01 T03500157  RH  032%=      5-min Rain = 0
KLA1 112213Z 15011KT 35/16 A2998 RMK A01 T03500157  RH  032%=      5-min Rain = 0
KLA1 112214Z 15010KT 35/16 A2998 RMK A01 T03480156  RH  032%=      5-min Rain = 0
KLA1 112215Z 15008G13KT 35/16 A2998 RMK A01 T03490155  RH  031%=      5-min Rain = 0
KLA1 112216Z 15010G19KT 35/16 A2998 RMK A01 T03510155  RH  031%=      5-min Rain = 0
KLA1 112217Z 15012KT 35/16 A2998 RMK A01 T03510156  RH  031%=      5-min Rain = 0
KLA1 112218Z 15010KT 35/16 A2998 RMK A01 T03510155  RH  031%=      5-min Rain = 0
KLA1 112219Z 13011KT 35/16 A2998 RMK A01 T03510158  RH  032%=      5-min Rain = 0
KLA1 112220Z 13010KT 35/16 A2998 RMK A01 T03530161  RH  032%=      5-min Rain = 0
KLA1 112221Z 16011KT 35/16 A2998 RMK A01 T03540161  RH  032%=      5-min Rain = 0
KLA1 112222Z 16012KT 35/16 A2998 RMK A01 T03540160  RH  032%=      5-min Rain = 0
KLA1 112223Z 16011KT 35/16 A2998 RMK A01 T03540159  RH  031%=      5-min Rain = 0
KLA1 112224Z 15013KT 35/16 A2998 RMK A01 T03530159  RH  032%=      5-min Rain = 0
KLA1 112225Z 16014KT 35/16 A2998 RMK A01 T03530159  RH  032%=      5-min Rain = 0
KLA1 112226Z 18010G15KT 35/16 A2998 RMK A01 T03490158  RH  032%=      5-min Rain = 0
KLA1 112227Z 17012KT 35/16 A2998 RMK A01 T03470159  RH  032%=      5-min Rain = 0
KLA1 112228Z 18011KT 35/16 A2998 RMK A01 T03470159  RH  033%=      5-min Rain = 0
KLA1 112229Z 17010KT 35/16 A2998 RMK A01 T03470157  RH  032%=      5-min Rain = 0
KLA1 112230Z 18009G14KT 35/16 A2998 RMK A01 T03450158  RH  033%=      5-min Rain = 0
KLA1 112231Z 18014KT 35/16 A2997 RMK A01 T03450158  RH  033%=      5-min Rain = 0
KLA1 112232Z 16016KT 35/16 A2997 RMK A01 T03490157  RH  032%=      5-min Rain = 0
KLA1 112233Z 17015KT 35/16 A2998 RMK A01 T03500156  RH  032%=      5-min Rain = 0
KLA1 112234Z 17011KT 35/16 A2997 RMK A01 T03490156  RH  032%=      5-min Rain = 0
KLA1 112235Z 18010KT 35/16 A2997 RMK A01 T03470157  RH  032%=      5-min Rain = 0
KLA1 112236Z 18014G23KT 35/16 A2997 RMK A01 T03490157  RH  032%=      5-min Rain = 0
KLA1 112237Z 18015KT 35/16 A2997 RMK A01 T03500158  RH  032%=      5-min Rain = 0
KLA1 112238Z 17011KT 35/16 A2997 RMK A01 T03490158  RH  032%=      5-min Rain = 0
KLA1 112239Z 15011KT 35/16 A2998 RMK A01 T03500159  RH  032%=      5-min Rain = 0
KLA1 112240Z 15011KT 35/16 A2998 RMK A01 T03510158  RH  032%=      5-min Rain = 0
KLA1 112241Z 16009G14KT 35/16 A2998 RMK A01 T03500157  RH  032%=      5-min Rain = 0
KLA1 112242Z 15012KT 35/16 A2997 RMK A01 T03510155  RH  031%=      5-min Rain = 0
KLA1 112243Z 16010KT 35/16 A2998 RMK A01 T03510157  RH  031%=      5-min Rain = 0
KLA1 112244Z 16012KT 35/16 A2998 RMK A01 T03530156  RH  031%=      5-min Rain = 0
KLA1 112245Z 17009KT 35/16 A2998 RMK A01 T03540155  RH  031%=      5-min Rain = 0
KLA1 112246Z 18010KT 35/15 A2998 RMK A01 T03530153  RH  030%=      5-min Rain = 0
KLA1 112247Z 17008KT 35/15 A2997 RMK A01 T03530154  RH  031%=      5-min Rain = 0
KLA1 112248Z 17011G16KT 35/15 A2997 RMK A01 T03520154  RH  031%=      5-min Rain = 0
KLA1 112249Z 16012KT 35/15 A2997 RMK A01 T03520154  RH  031%=      5-min Rain = 0
KLA1 112250Z 16012KT 35/15 A2998 RMK A01 T03520153  RH  031%=      5-min Rain = 0
KLA1 112251Z 16014KT 35/15 A2997 RMK A01 T03520153  RH  030%=      5-min Rain = 0
KLA1 112252Z 17012KT 35/16 A2997 RMK A01 T03510156  RH  031%=      5-min Rain = 0
KLA1 112253Z 14012KT 35/16 A2997 RMK A01 T03510158  RH  032%=      5-min Rain = 0
KLA1 112254Z 15013KT 35/16 A2998 RMK A01 T03520157  RH  031%=      5-min Rain = 0
KLA1 112255Z 15015KT 35/16 A2998 RMK A01 T03520157  RH  031%=      5-min Rain = 0
KLA1 112256Z 15011KT 35/16 A2998 RMK A01 T03500157  RH  032%=      5-min Rain = 0
KLA1 112257Z 15010KT 35/16 A2998 RMK A01 T03500156  RH  032%=      5-min Rain = 0
KLA1 112258Z 17010KT 35/16 A2998 RMK A01 T03480156  RH  032%=      5-min Rain = 0
KLA1 112259Z 17008KT 35/16 A2998 RMK A01 T03470156  RH  032%=      5-min Rain = 0
KLA1 112300Z 18006G13KT 35/16 A2998 RMK A01 T03510157  RH  031%=      5-min Rain = 0
KLA1 112301Z 16013KT 35/16 A2998 RMK A01 T03540157  RH  031%=      5-min Rain = 0
KLA1 112302Z 17010KT 35/16 A2998 RMK A01 T03520158  RH  032%=      5-min Rain = 0
KLA1 112303Z 18008KT 35/16 A2998 RMK A01 T03510159  RH  032%=      5-min Rain = 0
KLA1 112304Z 17012KT 35/16 A2997 RMK A01 T03490159  RH  032%=      5-min Rain = 0
KLA1 112305Z 17009KT 35/16 A2997 RMK A01 T03480158  RH  032%=      5-min Rain = 0
KLA1 112306Z 16009KT 35/16 A2997 RMK A01 T03470159  RH  033%=      5-min Rain = 0
KLA1 112307Z 16014KT 35/16 A2997 RMK A01 T03490157  RH  032%=      5-min Rain = 0
KLA1 112308Z 15014KT 35/16 A2998 RMK A01 T03500155  RH  031%=      5-min Rain = 0
KLA1 112309Z 14011KT 35/16 A2998 RMK A01 T03490156  RH  032%=      5-min Rain = 0
KLA1 112310Z 14008KT 35/16 A2997 RMK A01 T03500157  RH  032%=      5-min Rain = 0
KLA1 112311Z 13011KT 35/16 A2997 RMK A01 T03510157  RH  031%=      5-min Rain = 0
KLA1 112312Z 13009KT 35/16 A2997 RMK A01 T03510155  RH  031%=      5-min Rain = 0
KLA1 112313Z 15008G13KT 35/16 A2997 RMK A01 T03500156  RH  032%=      5-min Rain = 0
KLA1 112314Z 14013KT 35/16 A2997 RMK A01 T03520156  RH  031%=      5-min Rain = 0
KLA1 112315Z 15010KT 35/16 A2997 RMK A01 T03520156  RH  031%=      5-min Rain = 0
KLA1 112316Z 15009KT 35/16 A2997 RMK A01 T03520156  RH  031%=      5-min Rain = 0
KLA1 112317Z 14009KT 35/16 A2997 RMK A01 T03510156  RH  031%=      5-min Rain = 0
KLA1 112318Z 14008KT 35/16 A2997 RMK A01 T03510156  RH  031%=      5-min Rain = 0
KLA1 112319Z 16010KT 35/15 A2997 RMK A01 T03520154  RH  031%=      5-min Rain = 0
KLA1 112320Z 14012KT 35/15 A2997 RMK A01 T03530153  RH  030%=      5-min Rain = 0
KLA1 112321Z 14013KT 35/15 A2997 RMK A01 T03530153  RH  030%=      5-min Rain = 0
KLA1 112322Z 15011KT 35/15 A2997 RMK A01 T03500154  RH  031%=      5-min Rain = 0
KLA1 112323Z 15009KT 35/15 A2997 RMK A01 T03490154  RH  031%=      5-min Rain = 0
KLA1 112324Z 14010KT 35/15 A2997 RMK A01 T03490154  RH  031%=      5-min Rain = 0
KLA1 112325Z 13011KT 35/15 A2997 RMK A01 T03500153  RH  031%=      5-min Rain = 0
KLA1 112326Z 14014KT 35/16 A2997 RMK A01 T03510155  RH  031%=      5-min Rain = 0
KLA1 112327Z 14007KT 35/16 A2997 RMK A01 T03490155  RH  032%=      5-min Rain = 0
KLA1 112328Z 14012G17KT 35/16 A2997 RMK A01 T03470157  RH  032%=      5-min Rain = 0
KLA1 112329Z 14013KT 35/16 A2997 RMK A01 T03480157  RH  032%=      5-min Rain = 0
KLA1 112330Z 14010KT 35/16 A2997 RMK A01 T03500157  RH  032%=      5-min Rain = 0
KLA1 112331Z 14009KT 35/16 A2997 RMK A01 T03500156  RH  032%=      5-min Rain = 0
KLA1 112332Z 14007KT 35/16 A2997 RMK A01 T03480156  RH  032%=      5-min Rain = 0
KLA1 112333Z 14010KT 35/16 A2997 RMK A01 T03480156  RH  032%=      5-min Rain = 0
KLA1 112334Z 16011KT 35/16 A2997 RMK A01 T03480156  RH  032%=      5-min Rain = 0
KLA1 112335Z 16012KT 35/16 A2997 RMK A01 T03490155  RH  031%=      5-min Rain = 0
KLA1 112336Z 16012KT 35/15 A2997 RMK A01 T03490154  RH  031%=      5-min Rain = 0
KLA1 112337Z 15014KT 35/15 A2997 RMK A01 T03480154  RH  031%=      5-min Rain = 0
KLA1 112338Z 15010KT 35/15 A2997 RMK A01 T03480154  RH  031%=      5-min Rain = 0
KLA1 112339Z 16010KT 35/15 A2997 RMK A01 T03480154  RH  031%=      5-min Rain = 0
KLA1 112340Z 15011KT 35/15 A2997 RMK A01 T03500153  RH  031%=      5-min Rain = 0
KLA1 112341Z 17011KT 35/15 A2996 RMK A01 T03500153  RH  031%=      5-min Rain = 0
KLA1 112342Z 18009G14KT 35/15 A2996 RMK A01 T03490153  RH  031%=      5-min Rain = 0
KLA1 112343Z 19012G17KT 35/15 A2996 RMK A01 T03490154  RH  031%=      5-min Rain = 0
KLA1 112344Z 18014KT 35/15 A2996 RMK A01 T03480153  RH  031%=      5-min Rain = 0
KLA1 112345Z 17010G15KT 35/15 A2996 RMK A01 T03470152  RH  031%=      5-min Rain = 0
KLA1 112346Z 16010KT 35/15 A2996 RMK A01 T03470153  RH  031%=      5-min Rain = 0
KLA1 112347Z 17008KT 35/15 A2996 RMK A01 T03480154  RH  031%=      5-min Rain = 0
KLA1 112348Z 16014KT 35/16 A2996 RMK A01 T03480155  RH  032%=      5-min Rain = 0
KLA1 112349Z 15012KT 35/16 A2996 RMK A01 T03490155  RH  032%=      5-min Rain = 0
KLA1 112350Z 16011KT 35/16 A2996 RMK A01 T03490155  RH  032%=      5-min Rain = 0
KLA1 112351Z 16012KT 35/16 A2996 RMK A01 T03480155  RH  032%=      5-min Rain = 0
KLA1 112352Z 15013KT 35/16 A2996 RMK A01 T03460155  RH  032%=      5-min Rain = 0
KLA1 112353Z 16012KT 35/16 A2996 RMK A01 T03450155  RH  032%=      5-min Rain = 0
KLA1 112354Z 14011KT 35/16 A2996 RMK A01 T03450155  RH  032%=      5-min Rain = 0
KLA1 112355Z 13013KT 35/16 A2997 RMK A01 T03450155  RH  032%=      5-min Rain = 0
KLA1 112356Z 14010KT 35/16 A2996 RMK A01 T03450155  RH  032%=      5-min Rain = 0
KLA1 112357Z 14009KT 35/15 A2996 RMK A01 T03450154  RH  032%=      5-min Rain = 0
KLA1 112358Z 15011KT 35/16 A2996 RMK A01 T03450155  RH  032%=      5-min Rain = 0
KLA1 112359Z 17013KT 35/15 A2996 RMK A01 T03450153  RH  032%=      5-min Rain = 0
KLA1 120000Z 17009KT 35/15 A2996 RMK A01 T03450153  RH  032%=      5-min Rain = 0
KLA1 120001Z 18011KT 35/15 A2996 RMK A01 T03450153  RH  032%=      5-min Rain = 0
KLA1 120002Z 17012KT 34/15 A2996 RMK A01 T03440152  RH  032%=      5-min Rain = 0
KLA1 120003Z 17011KT 34/15 A2996 RMK A01 T03440152  RH  032%=      5-min Rain = 0
KLA1 120004Z 17010G15KT 35/15 A2996 RMK A01 T03450153  RH  032%=      5-min Rain = 0
KLA1 120005Z 17012KT 35/15 A2996 RMK A01 T03460152  RH  031%=      5-min Rain = 0
KLA1 120006Z 15013KT 35/15 A2997 RMK A01 T03450152  RH  031%=      5-min Rain = 0
KLA1 120007Z 15013KT 34/15 A2997 RMK A01 T03440154  RH  032%=      5-min Rain = 0
KLA1 120008Z 14011KT 34/15 A2997 RMK A01 T03440154  RH  032%=      5-min Rain = 0
KLA1 120009Z 15010KT 34/15 A2997 RMK A01 T03430153  RH  032%=      5-min Rain = 0
KLA1 120010Z 16008KT 34/15 A2997 RMK A01 T03430152  RH  032%=      5-min Rain = 0
KLA1 120011Z 17011KT 34/15 A2997 RMK A01 T03430151  RH  032%=      5-min Rain = 0
KLA1 120012Z 15007KT 34/15 A2997 RMK A01 T03430151  RH  032%=      5-min Rain = 0
KLA1 120013Z 15009KT 34/15 A2997 RMK A01 T03440152  RH  032%=      5-min Rain = 0
KLA1 120014Z 15014KT 35/15 A2997 RMK A01 T03450152  RH  032%=      5-min Rain = 0
KLA1 120015Z 15012KT 35/15 A2997 RMK A01 T03450154  RH  032%=      5-min Rain = 0
KLA1 120016Z 15012KT 34/15 A2997 RMK A01 T03440154  RH  032%=      5-min Rain = 0
KLA1 120017Z 15010KT 34/15 A2997 RMK A01 T03430154  RH  032%=      5-min Rain = 0
KLA1 120018Z 14010KT 34/15 A2997 RMK A01 T03420154  RH  032%=      5-min Rain = 0
KLA1 120019Z 13008KT 34/15 A2997 RMK A01 T03420154  RH  032%=      5-min Rain = 0
KLA1 120020Z 15009KT 34/16 A2997 RMK A01 T03430155  RH  033%=      5-min Rain = 0
KLA1 120021Z 15011KT 34/16 A2997 RMK A01 T03430155  RH  032%=      5-min Rain = 0
KLA1 120022Z 16007KT 34/16 A2997 RMK A01 T03430155  RH  032%=      5-min Rain = 0
KLA1 120023Z 15008KT 35/16 A2997 RMK A01 T03450156  RH  032%=      5-min Rain = 0
KLA1 120024Z 15010KT 35/16 A2997 RMK A01 T03460155  RH  032%=      5-min Rain = 0
KLA1 120025Z 16010KT 35/15 A2997 RMK A01 T03460154  RH  032%=      5-min Rain = 0
KLA1 120026Z 15008KT 35/15 A2998 RMK A01 T03450154  RH  032%=      5-min Rain = 0
KLA1 120027Z 15010KT 34/15 A2998 RMK A01 T03440154  RH  032%=      5-min Rain = 0
KLA1 120028Z 15009KT 34/16 A2998 RMK A01 T03430155  RH  032%=      5-min Rain = 0
KLA1 120029Z 15010KT 34/16 A2998 RMK A01 T03440155  RH  032%=      5-min Rain = 0
KLA1 120030Z 16009KT 34/16 A2998 RMK A01 T03430155  RH  032%=      5-min Rain = 0
KLA1 120031Z 14008KT 34/16 A2998 RMK A01 T03430155  RH  033%=      5-min Rain = 0
KLA1 120032Z 13010KT 34/16 A2998 RMK A01 T03430156  RH  033%=      5-min Rain = 0
KLA1 120033Z 14013KT 34/16 A2998 RMK A01 T03430155  RH  033%=      5-min Rain = 0
KLA1 120034Z 16013KT 34/16 A2998 RMK A01 T03430155  RH  033%=      5-min Rain = 0
KLA1 120035Z 15011KT 34/16 A2998 RMK A01 T03430155  RH  033%=      5-min Rain = 0
KLA1 120036Z 15011KT 34/15 A2998 RMK A01 T03410153  RH  033%=      5-min Rain = 0
KLA1 120037Z 15008KT 34/15 A2998 RMK A01 T03400154  RH  033%=      5-min Rain = 0
KLA1 120038Z 15010KT 34/15 A2998 RMK A01 T03400154  RH  033%=      5-min Rain = 0
KLA1 120039Z 16008KT 34/15 A2998 RMK A01 T03400153  RH  033%=      5-min Rain = 0
KLA1 120040Z 14011KT 34/15 A2998 RMK A01 T03390153  RH  033%=      5-min Rain = 0
KLA1 120041Z 14010G15KT 34/15 A2998 RMK A01 T03400153  RH  033%=      5-min Rain = 0
KLA1 120042Z 15012KT 34/15 A2998 RMK A01 T03400153  RH  033%=      5-min Rain = 0
KLA1 120043Z 15011KT 34/15 A2998 RMK A01 T03390152  RH  033%=      5-min Rain = 0
KLA1 120044Z 15007KT 34/15 A2998 RMK A01 T03390152  RH  033%=      5-min Rain = 0
KLA1 120045Z 16007KT 34/15 A2998 RMK A01 T03390152  RH  033%=      5-min Rain = 0
KLA1 120046Z 16009KT 34/15 A2998 RMK A01 T03400153  RH  032%=      5-min Rain = 0
KLA1 120047Z 17012KT 34/15 A2998 RMK A01 T03400151  RH  032%=      5-min Rain = 0
KLA1 120048Z 17011KT 34/15 A2998 RMK A01 T03390150  RH  032%=      5-min Rain = 0
KLA1 120049Z 16009KT 34/15 A2998 RMK A01 T03380149  RH  032%=      5-min Rain = 0
KLA1 120050Z 17010KT 34/15 A2998 RMK A01 T03370150  RH  033%=      5-min Rain = 0
KLA1 120051Z 17011KT 34/15 A2998 RMK A01 T03370151  RH  033%=      5-min Rain = 0
KLA1 120052Z 17010KT 34/15 A2998 RMK A01 T03370151  RH  033%=      5-min Rain = 0
KLA1 120053Z 17012KT 34/15 A2998 RMK A01 T03370153  RH  033%=      5-min Rain = 0
KLA1 120054Z 16009KT 34/15 A2998 RMK A01 T03360154  RH  034%=      5-min Rain = 0
KLA1 120055Z 15007KT 34/15 A2998 RMK A01 T03350154  RH  034%=      5-min Rain = 0
KLA1 120056Z 15008KT 34/15 A2998 RMK A01 T03350154  RH  034%=      5-min Rain = 0
KLA1 120057Z 16007KT 34/16 A2998 RMK A01 T03360155  RH  034%=      5-min Rain = 0
KLA1 120058Z 16010KT 34/16 A2998 RMK A01 T03360155  RH  034%=      5-min Rain = 0
KLA1 120059Z 16014KT 34/16 A2998 RMK A01 T03360156  RH  034%=      5-min Rain = 0
KLA1 120100Z 15012KT 34/15 A2998 RMK A01 T03350154  RH  034%=      5-min Rain = 0
KLA1 120101Z 15009KT 34/15 A2998 RMK A01 T03350153  RH  034%=      5-min Rain = 0
KLA1 120102Z 15008KT 33/15 A2998 RMK A01 T03340153  RH  034%=      5-min Rain = 0
KLA1 120103Z 16011KT 33/15 A2998 RMK A01 T03340153  RH  034%=      5-min Rain = 0
KLA1 120104Z 15013KT 33/15 A2998 RMK A01 T03330153  RH  034%=      5-min Rain = 0
KLA1 120105Z 16012KT 33/15 A2998 RMK A01 T03320153  RH  034%=      5-min Rain = 0
KLA1 120106Z 16010KT 33/15 A2998 RMK A01 T03320153  RH  034%=      5-min Rain = 0
KLA1 120107Z 16012KT 33/15 A2997 RMK A01 T03320154  RH  034%=      5-min Rain = 0
KLA1 120108Z 16012KT 33/15 A2997 RMK A01 T03310154  RH  035%=      5-min Rain = 0
KLA1 120109Z 17013KT 33/16 A2997 RMK A01 T03310155  RH  035%=      5-min Rain = 0
KLA1 120110Z 15012KT 33/16 A2998 RMK A01 T03310155  RH  035%=      5-min Rain = 0
KLA1 120111Z 15008KT 33/16 A2998 RMK A01 T03310155  RH  035%=      5-min Rain = 0
KLA1 120112Z 15010KT 33/16 A2998 RMK A01 T03310155  RH  035%=      5-min Rain = 0
KLA1 120113Z 15009KT 33/15 A2998 RMK A01 T03310154  RH  035%=      5-min Rain = 0
KLA1 120114Z 16008KT 33/15 A2998 RMK A01 T03300154  RH  035%=      5-min Rain = 0
KLA1 120115Z 16007KT 33/16 A2998 RMK A01 T03300155  RH  035%=      5-min Rain = 0
KLA1 120116Z 15007KT 33/16 A2998 RMK A01 T03300156  RH  035%=      5-min Rain = 0
KLA1 120117Z 16008KT 33/16 A2998 RMK A01 T03300157  RH  035%=      5-min Rain = 0
KLA1 120118Z 17009KT 33/16 A2998 RMK A01 T03300156  RH  035%=      5-min Rain = 0
KLA1 120119Z 16011G16KT 33/16 A2998 RMK A01 T03300157  RH  035%=      5-min Rain = 0
KLA1 120120Z 15008KT 33/16 A2998 RMK A01 T03290158  RH  036%=      5-min Rain = 0
KLA1 120121Z 15011KT 33/16 A2998 RMK A01 T03290158  RH  036%=      5-min Rain = 0
KLA1 120122Z 15011KT 33/16 A2998 RMK A01 T03280158  RH  036%=      5-min Rain = 0
KLA1 120123Z 15010KT 33/16 A2998 RMK A01 T03280159  RH  036%=      5-min Rain = 0
KLA1 120124Z 15009G14KT 33/16 A2998 RMK A01 T03280159  RH  036%=      5-min Rain = 0
KLA1 120125Z 15011KT 33/16 A2998 RMK A01 T03270160  RH  037%=      5-min Rain = 0
KLA1 120126Z 15011KT 33/16 A2998 RMK A01 T03270161  RH  037%=      5-min Rain = 0
KLA1 120127Z 15007KT 33/16 A2998 RMK A01 T03270162  RH  037%=      5-min Rain = 0
KLA1 120128Z 14008KT 33/16 A2998 RMK A01 T03270162  RH  037%=      5-min Rain = 0
KLA1 120129Z 13009KT 33/16 A2998 RMK A01 T03260162  RH  037%=      5-min Rain = 0
KLA1 120130Z 14010KT 33/16 A2998 RMK A01 T03260162  RH  037%=      5-min Rain = 0
KLA1 120131Z 14008KT 33/16 A2998 RMK A01 T03250162  RH  037%=      5-min Rain = 0
KLA1 120132Z 13009KT 33/16 A2998 RMK A01 T03250162  RH  038%=      5-min Rain = 0
KLA1 120133Z 14010KT 33/16 A2998 RMK A01 T03250162  RH  038%=      5-min Rain = 0
KLA1 120134Z 13012KT 32/16 A2998 RMK A01 T03240161  RH  038%=      5-min Rain = 0
KLA1 120135Z 13011KT 32/16 A2998 RMK A01 T03240161  RH  038%=      5-min Rain = 0
KLA1 120136Z 13008KT 32/16 A2998 RMK A01 T03240161  RH  038%=      5-min Rain = 0
KLA1 120137Z 12010KT 32/16 A2998 RMK A01 T03240161  RH  038%=      5-min Rain = 0
KLA1 120138Z 13010KT 32/16 A2998 RMK A01 T03240161  RH  038%=      5-min Rain = 0
KLA1 120139Z 13009KT 32/16 A2998 RMK A01 T03230161  RH  038%=      5-min Rain = 0
KLA1 120140Z 14008KT 32/16 A2998 RMK A01 T03230162  RH  038%=      5-min Rain = 0
KLA1 120141Z 13008KT 32/16 A2998 RMK A01 T03220162  RH  038%=      5-min Rain = 0
KLA1 120142Z 13007KT 32/16 A2998 RMK A01 T03220162  RH  038%=      5-min Rain = 0
KLA1 120143Z 13009KT 32/16 A2998 RMK A01 T03210162  RH  039%=      5-min Rain = 0
KLA1 120144Z 13009KT 32/16 A2998 RMK A01 T03210163  RH  039%=      5-min Rain = 0
KLA1 120145Z 13007KT 32/16 A2998 RMK A01 T03200163  RH  039%=      5-min Rain = 0
KLA1 120146Z 13007KT 32/16 A2998 RMK A01 T03200164  RH  039%=      5-min Rain = 0
KLA1 120147Z 13007KT 32/16 A2998 RMK A01 T03190164  RH  039%=      5-min Rain = 0
KLA1 120148Z 13007KT 32/16 A2998 RMK A01 T03190164  RH  039%=      5-min Rain = 0
KLA1 120149Z 13006KT 32/16 A2999 RMK A01 T03190164  RH  039%=      5-min Rain = 0
KLA1 120150Z 12007KT 32/16 A2998 RMK A01 T03180164  RH  040%=      5-min Rain = 0
KLA1 120151Z 13006KT 32/17 A2998 RMK A01 T03180165  RH  040%=      5-min Rain = 0
KLA1 120152Z 12006G11KT 32/16 A2998 RMK A01 T03170164  RH  040%=      5-min Rain = 0
KLA1 120153Z 12008KT 32/16 A2999 RMK A01 T03170164  RH  040%=      5-min Rain = 0
KLA1 120154Z 12007KT 32/16 A2998 RMK A01 T03170164  RH  040%=      5-min Rain = 0
KLA1 120155Z 12007KT 32/16 A2999 RMK A01 T03170164  RH  040%=      5-min Rain = 0
KLA1 120156Z 12008KT 32/16 A2999 RMK A01 T03170164  RH  040%=      5-min Rain = 0
KLA1 120157Z 12007KT 32/16 A2999 RMK A01 T03160164  RH  040%=      5-min Rain = 0
KLA1 120158Z 12006KT 32/16 A2999 RMK A01 T03160164  RH  040%=      5-min Rain = 0
KLA1 120159Z 12007G12KT 32/16 A2999 RMK A01 T03160164  RH  040%=      5-min Rain = 0
KLA1 120200Z 13009KT 32/16 A2999 RMK A01 T03150163  RH  040%=      5-min Rain = 0
KLA1 120201Z 13010KT 32/16 A2999 RMK A01 T03150162  RH  040%=      5-min Rain = 0
KLA1 120202Z 13010KT 32/16 A2999 RMK A01 T03150163  RH  040%=      5-min Rain = 0
KLA1 120203Z 13007KT 32/16 A2999 RMK A01 T03160163  RH  040%=      5-min Rain = 0
KLA1 120204Z 12008KT 32/16 A2999 RMK A01 T03160163  RH  040%=      5-min Rain = 0
KLA1 120205Z 12006KT 32/16 A2999 RMK A01 T03160163  RH  040%=      5-min Rain = 0
KLA1 120206Z 12006KT 32/16 A2999 RMK A01 T03150163  RH  040%=      5-min Rain = 0
KLA1 120207Z 13009KT 31/16 A2999 RMK A01 T03140163  RH  040%=      5-min Rain = 0
KLA1 120208Z 13007KT 31/16 A2999 RMK A01 T03140163  RH  040%=      5-min Rain = 0
KLA1 120209Z 13010KT 31/16 A2999 RMK A01 T03140163  RH  040%=      5-min Rain = 0
KLA1 120210Z 13009KT 31/16 A2999 RMK A01 T03140163  RH  040%=      5-min Rain = 0
KLA1 120211Z 12007KT 31/16 A2999 RMK A01 T03140163  RH  040%=      5-min Rain = 0
KLA1 120212Z 12008KT 31/16 A2999 RMK A01 T03140163  RH  040%=      5-min Rain = 0
KLA1 120213Z 13007KT 31/16 A2999 RMK A01 T03140163  RH  040%=      5-min Rain = 0
KLA1 120214Z 12008KT 31/16 A2999 RMK A01 T03130163  RH  040%=      5-min Rain = 0
KLA1 120215Z 13008KT 31/16 A2999 RMK A01 T03130163  RH  040%=      5-min Rain = 0
KLA1 120216Z 13008KT 31/16 A2999 RMK A01 T03130163  RH  040%=      5-min Rain = 0
KLA1 120217Z 12007KT 31/16 A2999 RMK A01 T03130163  RH  040%=      5-min Rain = 0
KLA1 120218Z 12007KT 31/16 A2999 RMK A01 T03130163  RH  041%=      5-min Rain = 0
KLA1 120219Z 13008KT 31/16 A30 RMK A01 T03120163  RH  041%=      5-min Rain = 0
KLA1 120220Z 13007KT 31/16 A30 RMK A01 T03120163  RH  041%=      5-min Rain = 0
KLA1 120221Z 13008KT 31/16 A30 RMK A01 T03120163  RH  041%=      5-min Rain = 0
KLA1 120222Z 13007KT 31/16 A30 RMK A01 T03120163  RH  041%=      5-min Rain = 0
KLA1 120223Z 12008KT 31/16 A30 RMK A01 T03120163  RH  041%=      5-min Rain = 0
KLA1 120224Z 12005KT 31/16 A30 RMK A01 T03120164  RH  041%=      5-min Rain = 0
KLA1 120225Z 12007KT 31/16 A30 RMK A01 T03120164  RH  041%=      5-min Rain = 0
KLA1 120226Z 12006KT 31/16 A30 RMK A01 T03120164  RH  041%=      5-min Rain = 0
KLA1 120227Z 12008KT 31/16 A30 RMK A01 T03120164  RH  041%=      5-min Rain = 0
KLA1 120228Z 12007KT 31/16 A30 RMK A01 T03120164  RH  041%=      5-min Rain = 0
KLA1 120229Z 12006KT 31/16 A30 RMK A01 T03120164  RH  041%=      5-min Rain = 0
KLA1 120230Z 12006KT 31/16 A30 RMK A01 T03110164  RH  041%=      5-min Rain = 0
KLA1 120231Z 12006KT 31/16 A30 RMK A01 T03110164  RH  041%=      5-min Rain = 0
KLA1 120232Z 12006KT 31/16 A30 RMK A01 T03100164  RH  041%=      5-min Rain = 0
KLA1 120233Z 11006KT 31/16 A30 RMK A01 T03100164  RH  042%=      5-min Rain = 0
KLA1 120234Z 12006KT 31/16 A3001 RMK A01 T03100164  RH  042%=      5-min Rain = 0
KLA1 120235Z 11007KT 31/16 A3001 RMK A01 T03090164  RH  042%=      5-min Rain = 0
KLA1 120236Z 12007KT 31/16 A3001 RMK A01 T03090164  RH  042%=      5-min Rain = 0
KLA1 120237Z 11006KT 31/16 A3001 RMK A01 T03090164  RH  042%=      5-min Rain = 0
KLA1 120238Z 12006KT 31/16 A3001 RMK A01 T03090164  RH  042%=      5-min Rain = 0
KLA1 120239Z 12006KT 31/16 A3001 RMK A01 T03090164  RH  042%=      5-min Rain = 0
KLA1 120240Z 12005KT 31/17 A3001 RMK A01 T03090165  RH  042%=      5-min Rain = 0
KLA1 120241Z 11005KT 31/16 A3001 RMK A01 T03090164  RH  042%=      5-min Rain = 0
KLA1 120242Z 11006KT 31/16 A3001 RMK A01 T03080164  RH  042%=      5-min Rain = 0
KLA1 120243Z 11007KT 31/16 A3001 RMK A01 T03080164  RH  042%=      5-min Rain = 0
KLA1 120244Z 11006KT 31/16 A3001 RMK A01 T03080164  RH  042%=      5-min Rain = 0
KLA1 120245Z 12006KT 31/16 A3001 RMK A01 T03080164  RH  042%=      5-min Rain = 0
KLA1 120246Z 11005KT 31/17 A3001 RMK A01 T03080165  RH  042%=      5-min Rain = 0
KLA1 120247Z 12006KT 31/17 A3001 RMK A01 T03080165  RH  042%=      5-min Rain = 0
KLA1 120248Z 12006KT 31/17 A3001 RMK A01 T03080165  RH  042%=      5-min Rain = 0
KLA1 120249Z 12006KT 31/16 A3001 RMK A01 T03070164  RH  042%=      5-min Rain = 0
KLA1 120250Z 12005KT 31/16 A3001 RMK A01 T03070164  RH  042%=      5-min Rain = 0
KLA1 120251Z 12005KT 31/16 A3001 RMK A01 T03070164  RH  042%=      5-min Rain = 0
KLA1 120252Z 12005KT 31/16 A3001 RMK A01 T03070164  RH  042%=      5-min Rain = 0
KLA1 120253Z 12006KT 31/17 A3001 RMK A01 T03060165  RH  043%=      5-min Rain = 0
KLA1 120254Z 12006KT 31/17 A3001 RMK A01 T03060165  RH  043%=      5-min Rain = 0
KLA1 120255Z 12005KT 31/17 A3001 RMK A01 T03060165  RH  043%=      5-min Rain = 0
KLA1 120256Z 12005KT 31/17 A3001 RMK A01 T03060165  RH  043%=      5-min Rain = 0
KLA1 120257Z 12007KT 31/17 A3002 RMK A01 T03050165  RH  043%=      5-min Rain = 0
KLA1 120258Z 12005KT 31/16 A3002 RMK A01 T03050164  RH  043%=      5-min Rain = 0
KLA1 120259Z 11005KT 31/17 A3002 RMK A01 T03050165  RH  043%=      5-min Rain = 0
KLA1 120300Z 12005KT 30/16 A3002 RMK A01 T03040164  RH  043%=      5-min Rain = 0
KLA1 120301Z 12005KT 30/16 A3002 RMK A01 T03040164  RH  043%=      5-min Rain = 0
KLA1 120302Z 12005KT 30/16 A3002 RMK A01 T03040164  RH  043%=      5-min Rain = 0
KLA1 120303Z 12006KT 30/16 A3002 RMK A01 T03040164  RH  043%=      5-min Rain = 0
KLA1 120304Z 12006KT 30/16 A3002 RMK A01 T03040164  RH  043%=      5-min Rain = 0
KLA1 120305Z 11005KT 30/16 A3002 RMK A01 T03040164  RH  043%=      5-min Rain = 0
KLA1 120306Z 11006KT 30/16 A3002 RMK A01 T03040164  RH  043%=      5-min Rain = 0
KLA1 120307Z 12006KT 30/16 A3002 RMK A01 T03040164  RH  043%=      5-min Rain = 0
KLA1 120308Z 12007KT 30/16 A3002 RMK A01 T03040164  RH  043%=      5-min Rain = 0
KLA1 120309Z 11006KT 30/17 A3002 RMK A01 T03040165  RH  043%=      5-min Rain = 0
KLA1 120310Z 12005KT 30/16 A3002 RMK A01 T03040164  RH  043%=      5-min Rain = 0
KLA1 120311Z 12005KT 30/16 A3002 RMK A01 T03040164  RH  043%=      5-min Rain = 0
KLA1 120312Z 11007KT 30/16 A3002 RMK A01 T03040164  RH  043%=      5-min Rain = 0
KLA1 120313Z 12006KT 30/16 A3002 RMK A01 T03040164  RH  043%=      5-min Rain = 0
KLA1 120314Z 12006KT 30/16 A3002 RMK A01 T03040164  RH  043%=      5-min Rain = 0
KLA1 120315Z 12005KT 30/16 A3003 RMK A01 T03040164  RH  043%=      5-min Rain = 0
KLA1 120316Z 13005KT 30/16 A3003 RMK A01 T03040164  RH  043%=      5-min Rain = 0
KLA1 120317Z 13004KT 30/16 A3003 RMK A01 T03040164  RH  043%=      5-min Rain = 0
KLA1 120318Z 13005KT 30/16 A3003 RMK A01 T03030164  RH  043%=      5-min Rain = 0
KLA1 120319Z 13004KT 30/16 A3003 RMK A01 T03030164  RH  043%=      5-min Rain = 0
KLA1 120320Z 14005KT 30/16 A3003 RMK A01 T03020164  RH  044%=      5-min Rain = 0
KLA1 120321Z 14004KT 30/16 A3003 RMK A01 T03000164  RH  044%=      5-min Rain = 0
KLA1 120322Z 15004KT 30/16 A3003 RMK A01 T02990164  RH  044%=      5-min Rain = 0
KLA1 120323Z 16004KT 30/17 A3003 RMK A01 T02970165  RH  045%=      5-min Rain = 0
KLA1 120324Z 16004KT 30/17 A3003 RMK A01 T02960166  RH  045%=      5-min Rain = 0
KLA1 120325Z 15005KT 29/17 A3003 RMK A01 T02940166  RH  046%=      5-min Rain = 0
KLA1 120326Z 16005KT 29/17 A3003 RMK A01 T02920166  RH  046%=      5-min Rain = 0
KLA1 120327Z 15005KT 29/17 A3003 RMK A01 T02910166  RH  047%=      5-min Rain = 0
KLA1 120328Z 15005KT 29/17 A3003 RMK A01 T02900166  RH  047%=      5-min Rain = 0
KLA1 120329Z 15004KT 29/17 A3003 RMK A01 T02900167  RH  047%=      5-min Rain = 0
KLA1 120330Z 15004KT 29/17 A3003 RMK A01 T02890167  RH  048%=      5-min Rain = 0
KLA1 120331Z 15004KT 29/17 A3003 RMK A01 T02880166  RH  048%=      5-min Rain = 0
KLA1 120332Z 15004KT 29/17 A3003 RMK A01 T02880167  RH  048%=      5-min Rain = 0
KLA1 120333Z 15005KT 29/17 A3003 RMK A01 T02870167  RH  048%=      5-min Rain = 0
KLA1 120334Z 15005KT 29/17 A3003 RMK A01 T02870167  RH  048%=      5-min Rain = 0
KLA1 120335Z 15004KT 29/17 A3003 RMK A01 T02860166  RH  048%=      5-min Rain = 0
KLA1 120336Z 15004KT 29/17 A3003 RMK A01 T02860166  RH  048%=      5-min Rain = 0
KLA1 120337Z 15005KT 29/17 A3003 RMK A01 T02860167  RH  049%=      5-min Rain = 0
KLA1 120338Z 15005KT 29/17 A3003 RMK A01 T02860167  RH  049%=      5-min Rain = 0
KLA1 120339Z 15005KT 29/17 A3003 RMK A01 T02850167  RH  049%=      5-min Rain = 0
KLA1 120340Z 15005KT 29/17 A3003 RMK A01 T02850167  RH  049%=      5-min Rain = 0
KLA1 120341Z 15005KT 29/17 A3003 RMK A01 T02850167  RH  049%=      5-min Rain = 0
KLA1 120342Z 15005KT 29/17 A3003 RMK A01 T02850167  RH  049%=      5-min Rain = 0
KLA1 120343Z 15005KT 29/17 A3003 RMK A01 T02850167  RH  049%=      5-min Rain = 0
KLA1 120344Z 15005KT 28/17 A3003 RMK A01 T02840167  RH  049%=      5-min Rain = 0
KLA1 120345Z 15005KT 28/17 A3003 RMK A01 T02840167  RH  049%=      5-min Rain = 0
KLA1 120346Z 15004KT 28/17 A3003 RMK A01 T02840167  RH  049%=      5-min Rain = 0
KLA1 120347Z 15005KT 28/17 A3003 RMK A01 T02840167  RH  049%=      5-min Rain = 0
KLA1 120348Z 15004KT 28/17 A3003 RMK A01 T02840167  RH  049%=      5-min Rain = 0
KLA1 120349Z 14004KT 28/17 A3004 RMK A01 T02840167  RH  049%=      5-min Rain = 0
KLA1 120350Z 14004KT 28/17 A3004 RMK A01 T02830167  RH  049%=      5-min Rain = 0
KLA1 120351Z 15005KT 28/17 A3004 RMK A01 T02830166  RH  049%=      5-min Rain = 0
KLA1 120352Z 14006KT 28/17 A3004 RMK A01 T02830167  RH  049%=      5-min Rain = 0
KLA1 120353Z 15005KT 28/17 A3004 RMK A01 T02840167  RH  049%=      5-min Rain = 0
KLA1 120354Z 14005KT 28/17 A3004 RMK A01 T02840167  RH  049%=      5-min Rain = 0
KLA1 120355Z 14004KT 28/17 A3004 RMK A01 T02840167  RH  049%=      5-min Rain = 0
KLA1 120356Z 14004KT 28/17 A3004 RMK A01 T02840167  RH  049%=      5-min Rain = 0
KLA1 120357Z 14004KT 28/17 A3004 RMK A01 T02830167  RH  049%=      5-min Rain = 0
KLA1 120358Z 14004KT 28/17 A3004 RMK A01 T02820167  RH  049%=      5-min Rain = 0
KLA1 120359Z 14005KT 28/17 A3004 RMK A01 T02820167  RH  049%=      5-min Rain = 0
KLA1 120400Z 14004KT 28/17 A3004 RMK A01 T02820167  RH  050%=      5-min Rain = 0
KLA1 120401Z 14004KT 28/17 A3004 RMK A01 T02810167  RH  050%=      5-min Rain = 0
KLA1 120402Z 14004KT 28/17 A3004 RMK A01 T02810167  RH  050%=      5-min Rain = 0
KLA1 120403Z 13004KT 28/17 A3004 RMK A01 T02810167  RH  050%=      5-min Rain = 0
KLA1 120404Z 14004KT 28/17 A3004 RMK A01 T02810167  RH  050%=      5-min Rain = 0
KLA1 120405Z 13004KT 28/17 A3004 RMK A01 T02800167  RH  050%=      5-min Rain = 0
KLA1 120406Z 13004KT 28/17 A3004 RMK A01 T02800168  RH  050%=      5-min Rain = 0
KLA1 120407Z 14004KT 28/17 A3004 RMK A01 T02800167  RH  050%=      5-min Rain = 0
KLA1 120408Z 14004KT 28/17 A3004 RMK A01 T02790167  RH  050%=      5-min Rain = 0
KLA1 120409Z 14004KT 28/17 A3004 RMK A01 T02790167  RH  050%=      5-min Rain = 0
KLA1 120410Z 14004KT 28/17 A3004 RMK A01 T02800167  RH  050%=      5-min Rain = 0
KLA1 120411Z 14005KT 28/17 A3004 RMK A01 T02800167  RH  050%=      5-min Rain = 0
KLA1 120412Z 13004KT 28/17 A3004 RMK A01 T02800167  RH  050%=      5-min Rain = 0
KLA1 120413Z 13005KT 28/17 A3004 RMK A01 T02800167  RH  050%=      5-min Rain = 0
KLA1 120414Z 14005KT 28/17 A3004 RMK A01 T02800167  RH  050%=      5-min Rain = 0
KLA1 120415Z 12004KT 28/17 A3004 RMK A01 T02790167  RH  050%=      5-min Rain = 0
KLA1 120416Z 13004KT 28/17 A3005 RMK A01 T02790168  RH  051%=      5-min Rain = 0
KLA1 120417Z 13004KT 28/17 A3005 RMK A01 T02790167  RH  051%=      5-min Rain = 0
KLA1 120418Z 13004KT 28/17 A3005 RMK A01 T02790167  RH  051%=      5-min Rain = 0
KLA1 120419Z 13004KT 28/17 A3005 RMK A01 T02790166  RH  050%=      5-min Rain = 0
KLA1 120420Z 13004KT 28/17 A3005 RMK A01 T02790167  RH  050%=      5-min Rain = 0
KLA1 120421Z 13004KT 28/17 A3005 RMK A01 T02800166  RH  050%=      5-min Rain = 0
KLA1 120422Z 13004KT 28/17 A3005 RMK A01 T02800166  RH  050%=      5-min Rain = 0
KLA1 120423Z 13003KT 28/17 A3005 RMK A01 T02800166  RH  050%=      5-min Rain = 0
KLA1 120424Z 13004KT 28/17 A3005 RMK A01 T02810166  RH  050%=      5-min Rain = 0
KLA1 120425Z 13003KT 28/17 A3005 RMK A01 T02810165  RH  049%=      5-min Rain = 0
KLA1 120426Z 13004KT 28/17 A3005 RMK A01 T02820165  RH  049%=      5-min Rain = 0
KLA1 120427Z 13003KT 28/17 A3005 RMK A01 T02820165  RH  049%=      5-min Rain = 0
KLA1 120428Z 13003KT 28/17 A3005 RMK A01 T02830165  RH  049%=      5-min Rain = 0
KLA1 120429Z 14003KT 28/17 A3006 RMK A01 T02830165  RH  049%=      5-min Rain = 0
KLA1 120430Z 13003KT 28/17 A3006 RMK A01 T02830166  RH  049%=      5-min Rain = 0
KLA1 120431Z 13002KT 28/17 A3006 RMK A01 T02820166  RH  049%=      5-min Rain = 0
KLA1 120432Z 12002KT 28/17 A3006 RMK A01 T02810165  RH  049%=      5-min Rain = 0
KLA1 120433Z 13002KT 28/17 A3006 RMK A01 T02810165  RH  049%=      5-min Rain = 0
KLA1 120434Z 13002KT 28/17 A3006 RMK A01 T02810165  RH  049%=      5-min Rain = 0
KLA1 120435Z 11002KT 28/17 A3006 RMK A01 T02810165  RH  049%=      5-min Rain = 0
KLA1 120436Z 11003KT 28/17 A3006 RMK A01 T02800165  RH  050%=      5-min Rain = 0
KLA1 120437Z 10002KT 28/17 A3006 RMK A01 T02800165  RH  050%=      5-min Rain = 0
KLA1 120438Z 11003KT 28/16 A3006 RMK A01 T02800164  RH  049%=      5-min Rain = 0
KLA1 120439Z 12003KT 28/17 A3006 RMK A01 T02810165  RH  049%=      5-min Rain = 0
KLA1 120440Z 12002KT 28/16 A3006 RMK A01 T02810164  RH  049%=      5-min Rain = 0
KLA1 120441Z 12003KT 28/16 A3006 RMK A01 T02820164  RH  049%=      5-min Rain = 0
KLA1 120442Z 12002KT 28/16 A3006 RMK A01 T02820164  RH  049%=      5-min Rain = 0
KLA1 120443Z 12002KT 28/16 A3006 RMK A01 T02820164  RH  049%=      5-min Rain = 0
KLA1 120444Z 11002KT 28/16 A3006 RMK A01 T02820164  RH  049%=      5-min Rain = 0
KLA1 120445Z 11002KT 28/16 A3006 RMK A01 T02820164  RH  049%=      5-min Rain = 0
KLA1 120446Z 10002KT 28/16 A3006 RMK A01 T02820164  RH  049%=      5-min Rain = 0
KLA1 120447Z 10002KT 28/16 A3006 RMK A01 T02820164  RH  049%=      5-min Rain = 0
KLA1 120448Z 11003KT 28/16 A3006 RMK A01 T02820164  RH  049%=      5-min Rain = 0
KLA1 120449Z 11002KT 28/16 A3006 RMK A01 T02830164  RH  048%=      5-min Rain = 0
KLA1 120450Z 11003KT 28/16 A3006 RMK A01 T02830164  RH  048%=      5-min Rain = 0
KLA1 120451Z 12003KT 28/16 A3006 RMK A01 T02830164  RH  048%=      5-min Rain = 0
KLA1 120452Z 11003KT 28/16 A3006 RMK A01 T02830164  RH  048%=      5-min Rain = 0
KLA1 120453Z 11004KT 28/16 A3006 RMK A01 T02830164  RH  049%=      5-min Rain = 0
KLA1 120454Z 11004KT 28/17 A3006 RMK A01 T02820165  RH  049%=      5-min Rain = 0
KLA1 120455Z 11003KT 28/16 A3006 RMK A01 T02800164  RH  049%=      5-min Rain = 0
KLA1 120456Z 12004KT 28/16 A3006 RMK A01 T02790164  RH  050%=      5-min Rain = 0
KLA1 120457Z 12004KT 28/16 A3006 RMK A01 T02780164  RH  050%=      5-min Rain = 0
KLA1 120458Z 12004KT 28/16 A3006 RMK A01 T02760164  RH  050%=      5-min Rain = 0
KLA1 120459Z 11004KT 28/16 A3006 RMK A01 T02750164  RH  051%=      5-min Rain = 0
KLA1 120500Z 11004KT 28/16 A3006 RMK A01 T02750163  RH  051%=      5-min Rain = 0

Page generated in 0.0357 seconds.